PWSweather.com
Personal Weather Stations
Station Observations
KD5LEN
Ktxnorth1, North Richland Hills, TX 76180

Ktxnorth1North Richland Hills, TX 76180

Lat: 32.885294, Lon: -97.236048

Elevation: 694

Station Type: Vantage Pro 2

http://www.atzer0.net/VWS/root/index.htm

High Low Average
Temperature 49.8°F9.9°C 40.9°F4.9°C 45.9°F7.7°C
Dew Point 46.6°F8.1°C 33.6°F0.9°C 40.2°F4.6°C
Winds 19.0 mph 30.6 kmh Calm Calm 8.0 mph WNW12.9 kmh WNW
Wind Gusts 23.0 mph37.0 kmh 3.0 mph4.8 kmh 15.0 mph24.1 kmh
Humidity 89% 73% 80%
Pressure 30.09 in1019.0 mb 29.90 in1012.5 mb -
Precipitation 0.00 in0.0 mm - -
Hour Temp Dew Point Humidity Winds Wind Gusts Pressure Precip Precip Rate Daily Precip Total
12:00 AM 49.8°F9.9°C 46.1°F7.8°C 87% 4.0 mph N6.4 kmh N 12.0 mph19.3 kmh 29.93 in1013.5 mb 0.02 in0.5 mm 0.00 in0.0 mm 0.02 in0.5 mm
12:02 AM 49.8°F9.9°C 46.1°F7.8°C 87% 8.0 mph N12.9 kmh N 12.0 mph19.3 kmh 29.92 in1013.2 mb 0.02 in0.5 mm 0.00 in0.0 mm 0.02 in0.5 mm
12:04 AM 49.8°F9.9°C 46.1°F7.8°C 87% 6.0 mph N9.7 kmh N 9.0 mph14.5 kmh 29.92 in1013.2 mb 0.01 in0.3 mm 0.00 in0.0 mm 0.02 in0.5 mm
12:06 AM 49.8°F9.9°C 46.1°F7.8°C 87% 6.0 mph NE9.7 kmh NE 9.0 mph14.5 kmh 29.92 in1013.2 mb 0.01 in0.3 mm 0.00 in0.0 mm 0.02 in0.5 mm
12:08 AM 49.8°F9.9°C 46.1°F7.8°C 87% 8.0 mph N12.9 kmh N 9.0 mph14.5 kmh 29.92 in1013.2 mb 0.01 in0.3 mm 0.00 in0.0 mm 0.02 in0.5 mm
12:10 AM 49.7°F9.8°C 46.0°F7.8°C 87% 5.0 mph NE8.0 kmh NE 9.0 mph14.5 kmh 29.92 in1013.2 mb 0.01 in0.3 mm 0.00 in0.0 mm 0.02 in0.5 mm
12:12 AM 49.8°F9.9°C 46.1°F7.8°C 87% 3.0 mph NNE4.8 kmh NNE 11.0 mph17.7 kmh 29.92 in1013.2 mb 0.01 in0.3 mm 0.00 in0.0 mm 0.02 in0.5 mm
12:14 AM 49.7°F9.8°C 46.0°F7.8°C 87% 2.0 mph NNE3.2 kmh NNE 11.0 mph17.7 kmh 29.92 in1013.2 mb 0.01 in0.3 mm 0.00 in0.0 mm 0.02 in0.5 mm
12:16 AM 49.7°F9.8°C 46.3°F7.9°C 88% 3.0 mph N4.8 kmh N 11.0 mph17.7 kmh 29.92 in1013.2 mb 0.01 in0.3 mm 0.00 in0.0 mm 0.02 in0.5 mm
12:18 AM 49.7°F9.8°C 46.3°F7.9°C 88% 7.0 mph NNE11.3 kmh NNE 11.0 mph17.7 kmh 29.92 in1013.2 mb 0.01 in0.3 mm 0.00 in0.0 mm 0.02 in0.5 mm
12:20 AM 49.8°F9.9°C 46.4°F8.0°C 88% 3.0 mph N4.8 kmh N 11.0 mph17.7 kmh 29.92 in1013.2 mb 0.01 in0.3 mm 0.00 in0.0 mm 0.02 in0.5 mm
12:22 AM 49.7°F9.8°C 46.3°F7.9°C 88% 1.0 mph N1.6 kmh N 11.0 mph17.7 kmh 29.92 in1013.2 mb 0.01 in0.3 mm 0.00 in0.0 mm 0.02 in0.5 mm
12:24 AM 49.7°F9.8°C 46.3°F7.9°C 88% 8.0 mph N12.9 kmh N 11.0 mph17.7 kmh 29.92 in1013.2 mb 0.01 in0.3 mm 0.00 in0.0 mm 0.02 in0.5 mm
12:26 AM 49.7°F9.8°C 46.3°F7.9°C 88% 3.0 mph NNE4.8 kmh NNE 11.0 mph17.7 kmh 29.92 in1013.2 mb 0.01 in0.3 mm 0.00 in0.0 mm 0.02 in0.5 mm
12:28 AM 49.7°F9.8°C 46.3°F7.9°C 88% 4.0 mph N6.4 kmh N 11.0 mph17.7 kmh 29.91 in1012.9 mb 0.01 in0.3 mm 0.00 in0.0 mm 0.02 in0.5 mm
12:30 AM 49.7°F9.8°C 46.3°F7.9°C 88% 4.0 mph N6.4 kmh N 11.0 mph17.7 kmh 29.91 in1012.9 mb 0.01 in0.3 mm 0.00 in0.0 mm 0.02 in0.5 mm
12:32 AM 49.7°F9.8°C 46.3°F7.9°C 88% 4.0 mph N6.4 kmh N 11.0 mph17.7 kmh 29.91 in1012.9 mb 0.01 in0.3 mm 0.00 in0.0 mm 0.02 in0.5 mm
12:34 AM 49.7°F9.8°C 46.3°F7.9°C 88% 2.0 mph NE3.2 kmh NE 8.0 mph12.9 kmh 29.91 in1012.9 mb 0.00 in0.0 mm 0.00 in0.0 mm 0.02 in0.5 mm
12:36 AM 49.6°F9.8°C 46.2°F7.9°C 88% 1.0 mph N1.6 kmh N 8.0 mph12.9 kmh 29.90 in1012.5 mb 0.00 in0.0 mm 0.00 in0.0 mm 0.02 in0.5 mm
12:38 AM 49.7°F9.8°C 46.3°F7.9°C 88% 4.0 mph NNE6.4 kmh NNE 8.0 mph12.9 kmh 29.91 in1012.9 mb 0.00 in0.0 mm 0.00 in0.0 mm 0.02 in0.5 mm
12:40 AM 49.6°F9.8°C 46.2°F7.9°C 88% 5.0 mph N8.0 kmh N 8.0 mph12.9 kmh 29.91 in1012.9 mb 0.00 in0.0 mm 0.00 in0.0 mm 0.02 in0.5 mm
12:42 AM 49.7°F9.8°C 46.3°F7.9°C 88% 9.0 mph N14.5 kmh N 9.0 mph14.5 kmh 29.91 in1012.9 mb 0.00 in0.0 mm 0.00 in0.0 mm 0.02 in0.5 mm
12:44 AM 49.7°F9.8°C 46.3°F7.9°C 88% 3.0 mph N4.8 kmh N 9.0 mph14.5 kmh 29.91 in1012.9 mb 0.00 in0.0 mm 0.00 in0.0 mm 0.02 in0.5 mm
12:46 AM 49.6°F9.8°C 46.2°F7.9°C 88% 9.0 mph NW14.5 kmh NW 10.0 mph16.1 kmh 29.91 in1012.9 mb 0.00 in0.0 mm 0.00 in0.0 mm 0.02 in0.5 mm
12:48 AM 49.6°F9.8°C 46.2°F7.9°C 88% 3.0 mph NE4.8 kmh NE 13.0 mph20.9 kmh 29.91 in1012.9 mb 0.00 in0.0 mm 0.00 in0.0 mm 0.02 in0.5 mm
12:50 AM 49.6°F9.8°C 46.2°F7.9°C 88% 7.0 mph N11.3 kmh N 13.0 mph20.9 kmh 29.91 in1012.9 mb 0.00 in0.0 mm 0.00 in0.0 mm 0.02 in0.5 mm
12:52 AM 49.6°F9.8°C 46.2°F7.9°C 88% 3.0 mph N4.8 kmh N 13.0 mph20.9 kmh 29.91 in1012.9 mb 0.00 in0.0 mm 0.00 in0.0 mm 0.02 in0.5 mm
12:54 AM 49.6°F9.8°C 46.2°F7.9°C 88% 4.0 mph N6.4 kmh N 13.0 mph20.9 kmh 29.91 in1012.9 mb 0.00 in0.0 mm 0.00 in0.0 mm 0.02 in0.5 mm
12:56 AM 49.6°F9.8°C 46.2°F7.9°C 88% 2.0 mph NNW3.2 kmh NNW 13.0 mph20.9 kmh 29.91 in1012.9 mb 0.00 in0.0 mm 0.00 in0.0 mm 0.02 in0.5 mm
12:58 AM 49.6°F9.8°C 46.2°F7.9°C 88% 1.0 mph NNW1.6 kmh NNW 13.0 mph20.9 kmh 29.91 in1012.9 mb 0.00 in0.0 mm 0.00 in0.0 mm 0.02 in0.5 mm
01:00 AM 49.6°F9.8°C 46.2°F7.9°C 88% 3.0 mph NNE4.8 kmh NNE 13.0 mph20.9 kmh 29.92 in1013.2 mb 0.00 in0.0 mm 0.00 in0.0 mm 0.02 in0.5 mm
01:02 AM 49.5°F9.7°C 46.1°F7.8°C 88% 8.0 mph NW12.9 kmh NW 13.0 mph20.9 kmh 29.91 in1012.9 mb 0.00 in0.0 mm 0.00 in0.0 mm 0.02 in0.5 mm
01:04 AM 49.5°F9.7°C 46.1°F7.8°C 88% 4.0 mph NNW6.4 kmh NNW 5.0 mph8.0 kmh 29.92 in1013.2 mb 0.00 in0.0 mm 0.00 in0.0 mm 0.02 in0.5 mm
01:06 AM 49.6°F9.8°C 46.2°F7.9°C 88% 5.0 mph NW8.0 kmh NW 6.0 mph9.7 kmh 29.91 in1012.9 mb 0.00 in0.0 mm 0.00 in0.0 mm 0.02 in0.5 mm
01:08 AM 49.6°F9.8°C 46.2°F7.9°C 88% 2.0 mph NW3.2 kmh NW 6.0 mph9.7 kmh 29.92 in1013.2 mb 0.00 in0.0 mm 0.00 in0.0 mm 0.02 in0.5 mm
01:10 AM 49.6°F9.8°C 46.2°F7.9°C 88% 2.0 mph N3.2 kmh N 6.0 mph9.7 kmh 29.93 in1013.5 mb 0.00 in0.0 mm 0.00 in0.0 mm 0.02 in0.5 mm
01:12 AM 49.7°F9.8°C 46.3°F7.9°C 88% 4.0 mph N6.4 kmh N 6.0 mph9.7 kmh 29.92 in1013.2 mb 0.00 in0.0 mm 0.00 in0.0 mm 0.02 in0.5 mm
01:14 AM 49.6°F9.8°C 46.2°F7.9°C 88% Calm Calm 6.0 mph9.7 kmh 29.92 in1013.2 mb 0.00 in0.0 mm 0.00 in0.0 mm 0.02 in0.5 mm
01:16 AM 49.6°F9.8°C 46.2°F7.9°C 88% 3.0 mph N4.8 kmh N 6.0 mph9.7 kmh 29.92 in1013.2 mb 0.00 in0.0 mm 0.00 in0.0 mm 0.02 in0.5 mm
01:18 AM 49.6°F9.8°C 46.2°F7.9°C 88% 5.0 mph N8.0 kmh N 8.0 mph12.9 kmh 29.92 in1013.2 mb 0.00 in0.0 mm 0.00 in0.0 mm 0.02 in0.5 mm
01:20 AM 49.6°F9.8°C 46.2°F7.9°C 88% 4.0 mph N6.4 kmh N 8.0 mph12.9 kmh 29.92 in1013.2 mb 0.00 in0.0 mm 0.00 in0.0 mm 0.02 in0.5 mm
01:21 AM 49.6°F9.8°C 46.2°F7.9°C 88% 3.0 mph N4.8 kmh N 8.0 mph12.9 kmh 29.91 in1012.9 mb 0.00 in0.0 mm 0.00 in0.0 mm 0.02 in0.5 mm
01:24 AM 49.6°F9.8°C 46.2°F7.9°C 88% 6.0 mph N9.7 kmh N 10.0 mph16.1 kmh 29.92 in1013.2 mb 0.00 in0.0 mm 0.00 in0.0 mm 0.02 in0.5 mm
01:26 AM 49.6°F9.8°C 46.2°F7.9°C 88% 5.0 mph N8.0 kmh N 10.0 mph16.1 kmh 29.92 in1013.2 mb 0.00 in0.0 mm 0.00 in0.0 mm 0.02 in0.5 mm
01:28 AM 49.6°F9.8°C 46.2°F7.9°C 88% 9.0 mph N14.5 kmh N 11.0 mph17.7 kmh 29.92 in1013.2 mb 0.00 in0.0 mm 0.00 in0.0 mm 0.02 in0.5 mm
01:30 AM 49.6°F9.8°C 46.2°F7.9°C 88% 4.0 mph NNW6.4 kmh NNW 11.0 mph17.7 kmh 29.92 in1013.2 mb 0.00 in0.0 mm 0.00 in0.0 mm 0.02 in0.5 mm
01:32 AM 49.6°F9.8°C 46.2°F7.9°C 88% 2.0 mph N3.2 kmh N 11.0 mph17.7 kmh 29.92 in1013.2 mb 0.00 in0.0 mm 0.00 in0.0 mm 0.02 in0.5 mm
01:33 AM 49.6°F9.8°C 46.2°F7.9°C 88% 4.0 mph NNW6.4 kmh NNW 9.0 mph14.5 kmh 29.92 in1013.2 mb 0.00 in0.0 mm 0.00 in0.0 mm 0.02 in0.5 mm
01:36 AM 49.6°F9.8°C 46.2°F7.9°C 88% 2.0 mph NNW3.2 kmh NNW 9.0 mph14.5 kmh 29.92 in1013.2 mb 0.00 in0.0 mm 0.00 in0.0 mm 0.02 in0.5 mm
01:38 AM 49.5°F9.7°C 46.1°F7.8°C 88% 4.0 mph NW6.4 kmh NW 9.0 mph14.5 kmh 29.92 in1013.2 mb 0.00 in0.0 mm 0.00 in0.0 mm 0.02 in0.5 mm
01:40 AM 49.6°F9.8°C 46.5°F8.1°C 89% 8.0 mph NW12.9 kmh NW 9.0 mph14.5 kmh 29.93 in1013.5 mb 0.00 in0.0 mm 0.00 in0.0 mm 0.02 in0.5 mm
01:42 AM 49.7°F9.8°C 46.6°F8.1°C 89% 8.0 mph NNW12.9 kmh NNW 9.0 mph14.5 kmh 29.92 in1013.2 mb 0.00 in0.0 mm 0.00 in0.0 mm 0.02 in0.5 mm
01:44 AM 49.6°F9.8°C 46.5°F8.1°C 89% 4.0 mph NW6.4 kmh NW 9.0 mph14.5 kmh 29.92 in1013.2 mb 0.00 in0.0 mm 0.00 in0.0 mm 0.02 in0.5 mm
01:46 AM 49.7°F9.8°C 46.6°F8.1°C 89% 5.0 mph NW8.0 kmh NW 9.0 mph14.5 kmh 29.93 in1013.5 mb 0.00 in0.0 mm 0.00 in0.0 mm 0.02 in0.5 mm
01:48 AM 49.7°F9.8°C 46.6°F8.1°C 89% 5.0 mph NW8.0 kmh NW 9.0 mph14.5 kmh 29.93 in1013.5 mb 0.00 in0.0 mm 0.00 in0.0 mm 0.02 in0.5 mm
01:50 AM 49.7°F9.8°C 46.6°F8.1°C 89% 6.0 mph NW9.7 kmh NW 9.0 mph14.5 kmh 29.93 in1013.5 mb 0.00 in0.0 mm 0.00 in0.0 mm 0.02 in0.5 mm
01:52 AM 49.6°F9.8°C 46.5°F8.1°C 89% 7.0 mph NW11.3 kmh NW 9.0 mph14.5 kmh 29.93 in1013.5 mb 0.00 in0.0 mm 0.00 in0.0 mm 0.02 in0.5 mm
01:54 AM 49.6°F9.8°C 46.5°F8.1°C 89% 9.0 mph NNW14.5 kmh NNW 11.0 mph17.7 kmh 29.93 in1013.5 mb 0.00 in0.0 mm 0.00 in0.0 mm 0.02 in0.5 mm
01:56 AM 49.6°F9.8°C 46.5°F8.1°C 89% 10.0 mph NW16.1 kmh NW 11.0 mph17.7 kmh 29.93 in1013.5 mb 0.00 in0.0 mm 0.00 in0.0 mm 0.02 in0.5 mm
01:58 AM 49.6°F9.8°C 46.5°F8.1°C 89% 2.0 mph NNW3.2 kmh NNW 11.0 mph17.7 kmh 29.93 in1013.5 mb 0.00 in0.0 mm 0.00 in0.0 mm 0.02 in0.5 mm
02:00 AM 49.6°F9.8°C 46.5°F8.1°C 89% 4.0 mph NW6.4 kmh NW 11.0 mph17.7 kmh 29.93 in1013.5 mb 0.00 in0.0 mm 0.00 in0.0 mm 0.02 in0.5 mm
02:02 AM 49.5°F9.7°C 46.4°F8.0°C 89% 13.0 mph NNW20.9 kmh NNW 13.0 mph20.9 kmh 29.93 in1013.5 mb 0.00 in0.0 mm 0.00 in0.0 mm 0.02 in0.5 mm
02:03 AM 49.5°F9.7°C 46.4°F8.0°C 89% 11.0 mph NNW17.7 kmh NNW 13.0 mph20.9 kmh 29.93 in1013.5 mb 0.00 in0.0 mm 0.00 in0.0 mm 0.02 in0.5 mm
02:06 AM 49.4°F9.7°C 46.3°F7.9°C 89% 10.0 mph NW16.1 kmh NW 14.0 mph22.5 kmh 29.93 in1013.5 mb 0.00 in0.0 mm 0.00 in0.0 mm 0.02 in0.5 mm
02:08 AM 49.4°F9.7°C 46.3°F7.9°C 89% 4.0 mph N6.4 kmh N 14.0 mph22.5 kmh 29.93 in1013.5 mb 0.00 in0.0 mm 0.00 in0.0 mm 0.02 in0.5 mm
02:10 AM 49.4°F9.7°C 46.3°F7.9°C 89% 9.0 mph NW14.5 kmh NW 14.0 mph22.5 kmh 29.94 in1013.9 mb 0.00 in0.0 mm 0.00 in0.0 mm 0.02 in0.5 mm
02:12 AM 49.4°F9.7°C 46.3°F7.9°C 89% 11.0 mph NNW17.7 kmh NNW 14.0 mph22.5 kmh 29.93 in1013.5 mb 0.00 in0.0 mm 0.00 in0.0 mm 0.02 in0.5 mm
02:14 AM 49.4°F9.7°C 46.3°F7.9°C 89% 8.0 mph NW12.9 kmh NW 14.0 mph22.5 kmh 29.93 in1013.5 mb 0.00 in0.0 mm 0.00 in0.0 mm 0.02 in0.5 mm
02:16 AM 49.3°F9.6°C 46.2°F7.9°C 89% 6.0 mph NW9.7 kmh NW 14.0 mph22.5 kmh 29.93 in1013.5 mb 0.00 in0.0 mm 0.00 in0.0 mm 0.02 in0.5 mm
02:18 AM 49.3°F9.6°C 46.2°F7.9°C 89% 9.0 mph NW14.5 kmh NW 14.0 mph22.5 kmh 29.93 in1013.5 mb 0.00 in0.0 mm 0.00 in0.0 mm 0.02 in0.5 mm
02:20 AM 49.3°F9.6°C 46.2°F7.9°C 89% 10.0 mph NW16.1 kmh NW 14.0 mph22.5 kmh 29.93 in1013.5 mb 0.00 in0.0 mm 0.00 in0.0 mm 0.02 in0.5 mm
02:22 AM 49.3°F9.6°C 46.2°F7.9°C 89% 13.0 mph NW20.9 kmh NW 14.0 mph22.5 kmh 29.93 in1013.5 mb 0.00 in0.0 mm 0.00 in0.0 mm 0.02 in0.5 mm
02:24 AM 49.3°F9.6°C 46.2°F7.9°C 89% 9.0 mph NW14.5 kmh NW 14.0 mph22.5 kmh 29.93 in1013.5 mb 0.00 in0.0 mm 0.00 in0.0 mm 0.02 in0.5 mm
02:26 AM 49.3°F9.6°C 46.2°F7.9°C 89% 9.0 mph NW14.5 kmh NW 14.0 mph22.5 kmh 29.93 in1013.5 mb 0.00 in0.0 mm 0.00 in0.0 mm 0.02 in0.5 mm
02:28 AM 49.3°F9.6°C 46.2°F7.9°C 89% 9.0 mph NNW14.5 kmh NNW 14.0 mph22.5 kmh 29.93 in1013.5 mb 0.00 in0.0 mm 0.00 in0.0 mm 0.02 in0.5 mm
02:30 AM 49.2°F9.6°C 46.1°F7.8°C 89% 11.0 mph NW17.7 kmh NW 15.0 mph24.1 kmh 29.93 in1013.5 mb 0.00 in0.0 mm 0.00 in0.0 mm 0.02 in0.5 mm
02:32 AM 49.2°F9.6°C 46.1°F7.8°C 89% 4.0 mph N6.4 kmh N 15.0 mph24.1 kmh 29.92 in1013.2 mb 0.00 in0.0 mm 0.00 in0.0 mm 0.02 in0.5 mm
02:34 AM 49.1°F9.5°C 46.0°F7.8°C 89% 14.0 mph N22.5 kmh N 14.0 mph22.5 kmh 29.92 in1013.2 mb 0.00 in0.0 mm 0.00 in0.0 mm 0.02 in0.5 mm
02:36 AM 49.1°F9.5°C 46.0°F7.8°C 89% 12.0 mph NNW19.3 kmh NNW 15.0 mph24.1 kmh 29.93 in1013.5 mb 0.00 in0.0 mm 0.00 in0.0 mm 0.02 in0.5 mm
02:38 AM 49.1°F9.5°C 46.0°F7.8°C 89% 4.0 mph NNW6.4 kmh NNW 15.0 mph24.1 kmh 29.92 in1013.2 mb 0.00 in0.0 mm 0.00 in0.0 mm 0.02 in0.5 mm
02:40 AM 49.1°F9.5°C 46.0°F7.8°C 89% 5.0 mph NW8.0 kmh NW 15.0 mph24.1 kmh 29.92 in1013.2 mb 0.00 in0.0 mm 0.00 in0.0 mm 0.02 in0.5 mm
02:42 AM 49.1°F9.5°C 46.0°F7.8°C 89% 6.0 mph NW9.7 kmh NW 15.0 mph24.1 kmh 29.92 in1013.2 mb 0.00 in0.0 mm 0.00 in0.0 mm 0.02 in0.5 mm
02:44 AM 49.1°F9.5°C 46.0°F7.8°C 89% 6.0 mph NNE9.7 kmh NNE 15.0 mph24.1 kmh 29.92 in1013.2 mb 0.00 in0.0 mm 0.00 in0.0 mm 0.02 in0.5 mm
02:46 AM 49.1°F9.5°C 46.0°F7.8°C 89% 4.0 mph NW6.4 kmh NW 15.0 mph24.1 kmh 29.91 in1012.9 mb 0.00 in0.0 mm 0.00 in0.0 mm 0.02 in0.5 mm
02:48 AM 49.1°F9.5°C 46.0°F7.8°C 89% 4.0 mph NNW6.4 kmh NNW 15.0 mph24.1 kmh 29.92 in1013.2 mb 0.01 in0.3 mm 0.30 in7.6 mm 0.03 in0.8 mm
02:50 AM 49.0°F9.4°C 45.9°F7.7°C 89% 5.0 mph NW8.0 kmh NW 15.0 mph24.1 kmh 29.92 in1013.2 mb 0.01 in0.3 mm 0.00 in0.0 mm 0.03 in0.8 mm
02:52 AM 49.0°F9.4°C 45.9°F7.7°C 89% 8.0 mph NW12.9 kmh NW 15.0 mph24.1 kmh 29.93 in1013.5 mb 0.01 in0.3 mm 0.00 in0.0 mm 0.03 in0.8 mm
02:54 AM 49.1°F9.5°C 46.0°F7.8°C 89% 9.0 mph NNW14.5 kmh NNW 15.0 mph24.1 kmh 29.93 in1013.5 mb 0.01 in0.3 mm 0.00 in0.0 mm 0.03 in0.8 mm
02:56 AM 49.1°F9.5°C 46.0°F7.8°C 89% 8.0 mph NW12.9 kmh NW 15.0 mph24.1 kmh 29.94 in1013.9 mb 0.01 in0.3 mm 0.00 in0.0 mm 0.03 in0.8 mm
02:58 AM 49.1°F9.5°C 46.0°F7.8°C 89% 4.0 mph NNW6.4 kmh NNW 15.0 mph24.1 kmh 29.93 in1013.5 mb 0.01 in0.3 mm 0.00 in0.0 mm 0.03 in0.8 mm
03:00 AM 49.0°F9.4°C 45.9°F7.7°C 89% 6.0 mph N9.7 kmh N 15.0 mph24.1 kmh 29.93 in1013.5 mb 0.01 in0.3 mm 0.00 in0.0 mm 0.03 in0.8 mm
03:02 AM 49.0°F9.4°C 45.9°F7.7°C 89% 9.0 mph NNW14.5 kmh NNW 15.0 mph24.1 kmh 29.93 in1013.5 mb 0.01 in0.3 mm 0.00 in0.0 mm 0.03 in0.8 mm
03:04 AM 49.0°F9.4°C 45.9°F7.7°C 89% 6.0 mph N9.7 kmh N 13.0 mph20.9 kmh 29.93 in1013.5 mb 0.01 in0.3 mm 0.00 in0.0 mm 0.03 in0.8 mm
03:06 AM 48.9°F9.4°C 45.8°F7.7°C 89% 6.0 mph NW9.7 kmh NW 15.0 mph24.1 kmh 29.93 in1013.5 mb 0.01 in0.3 mm 0.00 in0.0 mm 0.03 in0.8 mm
03:08 AM 48.9°F9.4°C 45.8°F7.7°C 89% 4.0 mph NE6.4 kmh NE 17.0 mph27.4 kmh 29.92 in1013.2 mb 0.01 in0.3 mm 0.00 in0.0 mm 0.03 in0.8 mm
03:10 AM 48.9°F9.4°C 45.8°F7.7°C 89% 4.0 mph NW6.4 kmh NW 17.0 mph27.4 kmh 29.93 in1013.5 mb 0.01 in0.3 mm 0.00 in0.0 mm 0.03 in0.8 mm
03:12 AM 48.9°F9.4°C 45.8°F7.7°C 89% 8.0 mph N12.9 kmh N 17.0 mph27.4 kmh 29.94 in1013.9 mb 0.01 in0.3 mm 0.00 in0.0 mm 0.03 in0.8 mm
03:14 AM 48.9°F9.4°C 45.8°F7.7°C 89% 7.0 mph NW11.3 kmh NW 17.0 mph27.4 kmh 29.94 in1013.9 mb 0.01 in0.3 mm 0.00 in0.0 mm 0.03 in0.8 mm
03:16 AM 48.9°F9.4°C 45.8°F7.7°C 89% 5.0 mph N8.0 kmh N 17.0 mph27.4 kmh 29.94 in1013.9 mb 0.01 in0.3 mm 0.00 in0.0 mm 0.03 in0.8 mm
03:18 AM 48.8°F9.3°C 45.7°F7.6°C 89% 9.0 mph NW14.5 kmh NW 17.0 mph27.4 kmh 29.94 in1013.9 mb 0.01 in0.3 mm 0.00 in0.0 mm 0.03 in0.8 mm
03:20 AM 48.8°F9.3°C 45.7°F7.6°C 89% 5.0 mph NW8.0 kmh NW 17.0 mph27.4 kmh 29.94 in1013.9 mb 0.01 in0.3 mm 0.00 in0.0 mm 0.03 in0.8 mm
03:22 AM 48.8°F9.3°C 45.7°F7.6°C 89% 11.0 mph NW17.7 kmh NW 17.0 mph27.4 kmh 29.95 in1014.2 mb 0.01 in0.3 mm 0.00 in0.0 mm 0.03 in0.8 mm
03:24 AM 48.9°F9.4°C 45.8°F7.7°C 89% 8.0 mph NW12.9 kmh NW 17.0 mph27.4 kmh 29.95 in1014.2 mb 0.01 in0.3 mm 0.00 in0.0 mm 0.03 in0.8 mm
03:26 AM 48.8°F9.3°C 45.7°F7.6°C 89% 12.0 mph NW19.3 kmh NW 17.0 mph27.4 kmh 29.94 in1013.9 mb 0.01 in0.3 mm 0.00 in0.0 mm 0.03 in0.8 mm
03:28 AM 48.8°F9.3°C 45.7°F7.6°C 89% 8.0 mph NW12.9 kmh NW 17.0 mph27.4 kmh 29.94 in1013.9 mb 0.02 in0.5 mm 0.30 in7.6 mm 0.04 in1.0 mm
03:30 AM 48.7°F9.3°C 45.3°F7.4°C 88% 4.0 mph WNW6.4 kmh WNW 17.0 mph27.4 kmh 29.94 in1013.9 mb 0.02 in0.5 mm 0.00 in0.0 mm 0.04 in1.0 mm
03:31 AM 48.7°F9.3°C 45.3°F7.4°C 88% 9.0 mph NW14.5 kmh NW 18.0 mph29.0 kmh 29.95 in1014.2 mb 0.02 in0.5 mm 0.00 in0.0 mm 0.04 in1.0 mm
03:34 AM 48.8°F9.3°C 45.4°F7.4°C 88% 10.0 mph NNW16.1 kmh NNW 12.0 mph19.3 kmh 29.96 in1014.6 mb 0.04 in1.0 mm 0.40 in10.2 mm 0.06 in1.5 mm
03:36 AM 48.7°F9.3°C 45.3°F7.4°C 88% 3.0 mph NW4.8 kmh NW 14.0 mph22.5 kmh 29.97 in1014.9 mb 0.06 in1.5 mm 0.60 in15.2 mm 0.08 in2.0 mm
03:38 AM 48.7°F9.3°C 45.3°F7.4°C 88% 5.0 mph NNW8.0 kmh NNW 14.0 mph22.5 kmh 29.97 in1014.9 mb 0.06 in1.5 mm 0.00 in0.0 mm 0.08 in2.0 mm
03:40 AM 48.7°F9.3°C 45.3°F7.4°C 88% 11.0 mph NW17.7 kmh NW 14.0 mph22.5 kmh 29.97 in1014.9 mb 0.07 in1.8 mm 0.30 in7.6 mm 0.09 in2.3 mm
03:42 AM 48.6°F9.2°C 45.2°F7.3°C 88% 4.0 mph NW6.4 kmh NW 16.0 mph25.7 kmh 29.97 in1014.9 mb 0.07 in1.8 mm 0.00 in0.0 mm 0.09 in2.3 mm
03:44 AM 48.6°F9.2°C 45.2°F7.3°C 88% 5.0 mph NW8.0 kmh NW 16.0 mph25.7 kmh 29.97 in1014.9 mb 0.09 in2.3 mm 0.60 in15.2 mm 0.11 in2.8 mm
03:46 AM 48.5°F9.2°C 45.1°F7.3°C 88% 11.0 mph NNW17.7 kmh NNW 16.0 mph25.7 kmh 29.96 in1014.6 mb 0.09 in2.3 mm 0.00 in0.0 mm 0.11 in2.8 mm
03:48 AM 48.4°F9.1°C 45.0°F7.2°C 88% 13.0 mph NW20.9 kmh NW 16.0 mph25.7 kmh 29.96 in1014.6 mb 0.09 in2.3 mm 0.00 in0.0 mm 0.11 in2.8 mm
03:50 AM 48.3°F9.1°C 44.9°F7.2°C 88% 8.0 mph NW12.9 kmh NW 16.0 mph25.7 kmh 29.97 in1014.9 mb 0.09 in2.3 mm 0.00 in0.0 mm 0.11 in2.8 mm
03:52 AM 48.3°F9.1°C 44.9°F7.2°C 88% 12.0 mph N19.3 kmh N 16.0 mph25.7 kmh 29.96 in1014.6 mb 0.10 in2.5 mm 0.30 in7.6 mm 0.12 in3.0 mm
03:54 AM 48.3°F9.1°C 44.9°F7.2°C 88% 6.0 mph NW9.7 kmh NW 16.0 mph25.7 kmh 29.96 in1014.6 mb 0.10 in2.5 mm 0.00 in0.0 mm 0.12 in3.0 mm
03:56 AM 48.3°F9.1°C 44.9°F7.2°C 88% 11.0 mph N17.7 kmh N 16.0 mph25.7 kmh 29.96 in1014.6 mb 0.10 in2.5 mm 0.00 in0.0 mm 0.12 in3.0 mm
03:58 AM 48.4°F9.1°C 45.0°F7.2°C 88% 9.0 mph N14.5 kmh N 16.0 mph25.7 kmh 29.95 in1014.2 mb 0.10 in2.5 mm 0.00 in0.0 mm 0.12 in3.0 mm
04:00 AM 48.3°F9.1°C 44.9°F7.2°C 88% 6.0 mph N9.7 kmh N 16.0 mph25.7 kmh 29.95 in1014.2 mb 0.10 in2.5 mm 0.00 in0.0 mm 0.12 in3.0 mm
04:02 AM 48.3°F9.1°C 44.9°F7.2°C 88% 6.0 mph NW9.7 kmh NW 16.0 mph25.7 kmh 29.95 in1014.2 mb 0.10 in2.5 mm 0.00 in0.0 mm 0.12 in3.0 mm
04:04 AM 48.3°F9.1°C 44.9°F7.2°C 88% 8.0 mph NW12.9 kmh NW 14.0 mph22.5 kmh 29.95 in1014.2 mb 0.09 in2.3 mm 0.00 in0.0 mm 0.12 in3.0 mm
04:06 AM 48.3°F9.1°C 44.9°F7.2°C 88% 9.0 mph N14.5 kmh N 14.0 mph22.5 kmh 29.96 in1014.6 mb 0.09 in2.3 mm 0.00 in0.0 mm 0.12 in3.0 mm
04:08 AM 48.4°F9.1°C 45.0°F7.2°C 88% 3.0 mph NW4.8 kmh NW 14.0 mph22.5 kmh 29.97 in1014.9 mb 0.09 in2.3 mm 0.00 in0.0 mm 0.12 in3.0 mm
04:10 AM 48.4°F9.1°C 45.0°F7.2°C 88% 13.0 mph NW20.9 kmh NW 16.0 mph25.7 kmh 29.97 in1014.9 mb 0.09 in2.3 mm 0.00 in0.0 mm 0.12 in3.0 mm
04:12 AM 48.3°F9.1°C 44.9°F7.2°C 88% 9.0 mph NW14.5 kmh NW 19.0 mph30.6 kmh 29.97 in1014.9 mb 0.09 in2.3 mm 0.00 in0.0 mm 0.12 in3.0 mm
04:14 AM 48.2°F9.0°C 44.8°F7.1°C 88% 9.0 mph NW14.5 kmh NW 22.0 mph35.4 kmh 29.97 in1014.9 mb 0.10 in2.5 mm 0.30 in7.6 mm 0.13 in3.3 mm
04:16 AM 48.2°F9.0°C 44.8°F7.1°C 88% 9.0 mph NW14.5 kmh NW 22.0 mph35.4 kmh 29.97 in1014.9 mb 0.10 in2.5 mm 0.00 in0.0 mm 0.13 in3.3 mm
04:18 AM 48.2°F9.0°C 44.8°F7.1°C 88% 8.0 mph WNW12.9 kmh WNW 22.0 mph35.4 kmh 29.96 in1014.6 mb 0.10 in2.5 mm 0.00 in0.0 mm 0.13 in3.3 mm
04:20 AM 48.1°F8.9°C 44.7°F7.1°C 88% 14.0 mph NNW22.5 kmh NNW 22.0 mph35.4 kmh 29.97 in1014.9 mb 0.10 in2.5 mm 0.00 in0.0 mm 0.13 in3.3 mm
04:22 AM 48.2°F9.0°C 44.8°F7.1°C 88% 13.0 mph NW20.9 kmh NW 22.0 mph35.4 kmh 29.96 in1014.6 mb 0.10 in2.5 mm 0.00 in0.0 mm 0.13 in3.3 mm
04:24 AM 48.1°F8.9°C 44.7°F7.1°C 88% 9.0 mph N14.5 kmh N 22.0 mph35.4 kmh 29.96 in1014.6 mb 0.10 in2.5 mm 0.00 in0.0 mm 0.13 in3.3 mm
04:26 AM 48.1°F8.9°C 44.7°F7.1°C 88% 9.0 mph NNW14.5 kmh NNW 22.0 mph35.4 kmh 29.96 in1014.6 mb 0.10 in2.5 mm 0.00 in0.0 mm 0.13 in3.3 mm
04:28 AM 48.1°F8.9°C 44.7°F7.1°C 88% 8.0 mph NNW12.9 kmh NNW 22.0 mph35.4 kmh 29.95 in1014.2 mb 0.10 in2.5 mm 0.00 in0.0 mm 0.13 in3.3 mm
04:30 AM 48.1°F8.9°C 44.7°F7.1°C 88% 12.0 mph NW19.3 kmh NW 22.0 mph35.4 kmh 29.95 in1014.2 mb 0.10 in2.5 mm 0.00 in0.0 mm 0.13 in3.3 mm
04:32 AM 48.1°F8.9°C 44.7°F7.1°C 88% 4.0 mph NW6.4 kmh NW 22.0 mph35.4 kmh 29.95 in1014.2 mb 0.10 in2.5 mm 0.00 in0.0 mm 0.13 in3.3 mm
04:34 AM 48.1°F8.9°C 44.7°F7.1°C 88% 8.0 mph NW12.9 kmh NW 13.0 mph20.9 kmh 29.95 in1014.2 mb 0.08 in2.0 mm 0.00 in0.0 mm 0.13 in3.3 mm
04:36 AM 48.1°F8.9°C 44.4°F6.9°C 87% 3.0 mph N4.8 kmh N 18.0 mph29.0 kmh 29.95 in1014.2 mb 0.08 in2.0 mm 0.00 in0.0 mm 0.13 in3.3 mm
04:38 AM 48.1°F8.9°C 44.7°F7.1°C 88% 12.0 mph N19.3 kmh N 18.0 mph29.0 kmh 29.95 in1014.2 mb 0.08 in2.0 mm 0.00 in0.0 mm 0.13 in3.3 mm
04:40 AM 48.0°F8.9°C 44.3°F6.8°C 87% 15.0 mph WNW24.1 kmh WNW 18.0 mph29.0 kmh 29.95 in1014.2 mb 0.08 in2.0 mm 0.00 in0.0 mm 0.13 in3.3 mm
04:42 AM 48.0°F8.9°C 44.3°F6.8°C 87% 8.0 mph N12.9 kmh N 18.0 mph29.0 kmh 29.95 in1014.2 mb 0.08 in2.0 mm 0.00 in0.0 mm 0.13 in3.3 mm
04:44 AM 48.0°F8.9°C 44.3°F6.8°C 87% 4.0 mph N6.4 kmh N 18.0 mph29.0 kmh 29.95 in1014.2 mb 0.08 in2.0 mm 0.00 in0.0 mm 0.13 in3.3 mm
04:46 AM 47.9°F8.8°C 44.5°F6.9°C 88% 2.0 mph NNW3.2 kmh NNW 18.0 mph29.0 kmh 29.95 in1014.2 mb 0.08 in2.0 mm 0.00 in0.0 mm 0.13 in3.3 mm
04:48 AM 47.9°F8.8°C 44.2°F6.8°C 87% 8.0 mph NNW12.9 kmh NNW 18.0 mph29.0 kmh 29.95 in1014.2 mb 0.08 in2.0 mm 0.00 in0.0 mm 0.13 in3.3 mm
04:50 AM 47.9°F8.8°C 44.2°F6.8°C 87% 4.0 mph N6.4 kmh N 18.0 mph29.0 kmh 29.95 in1014.2 mb 0.08 in2.0 mm 0.00 in0.0 mm 0.13 in3.3 mm
04:52 AM 47.9°F8.8°C 44.2°F6.8°C 87% 9.0 mph NNE14.5 kmh NNE 18.0 mph29.0 kmh 29.95 in1014.2 mb 0.08 in2.0 mm 0.00 in0.0 mm 0.13 in3.3 mm
04:54 AM 47.9°F8.8°C 44.2°F6.8°C 87% 15.0 mph N24.1 kmh N 18.0 mph29.0 kmh 29.95 in1014.2 mb 0.08 in2.0 mm 0.00 in0.0 mm 0.13 in3.3 mm
04:56 AM 47.8°F8.8°C 44.1°F6.7°C 87% 3.0 mph NNE4.8 kmh NNE 18.0 mph29.0 kmh 29.94 in1013.9 mb 0.08 in2.0 mm 0.00 in0.0 mm 0.13 in3.3 mm
04:58 AM 47.8°F8.8°C 44.4°F6.9°C 88% 3.0 mph N4.8 kmh N 18.0 mph29.0 kmh 29.94 in1013.9 mb 0.08 in2.0 mm 0.00 in0.0 mm 0.13 in3.3 mm
05:00 AM 47.8°F8.8°C 44.4°F6.9°C 88% 8.0 mph N12.9 kmh N 18.0 mph29.0 kmh 29.94 in1013.9 mb 0.08 in2.0 mm 0.00 in0.0 mm 0.13 in3.3 mm
05:02 AM 47.8°F8.8°C 44.4°F6.9°C 88% 4.0 mph NNE6.4 kmh NNE 18.0 mph29.0 kmh 29.94 in1013.9 mb 0.08 in2.0 mm 0.00 in0.0 mm 0.13 in3.3 mm
05:04 AM 47.8°F8.8°C 44.4°F6.9°C 88% 14.0 mph NNE22.5 kmh NNE 17.0 mph27.4 kmh 29.95 in1014.2 mb 0.01 in0.3 mm 0.00 in0.0 mm 0.13 in3.3 mm
05:06 AM 47.8°F8.8°C 44.1°F6.7°C 87% 4.0 mph N6.4 kmh N 17.0 mph27.4 kmh 29.95 in1014.2 mb 0.01 in0.3 mm 0.00 in0.0 mm 0.13 in3.3 mm
05:08 AM 47.7°F8.7°C 44.3°F6.8°C 88% 6.0 mph N9.7 kmh N 17.0 mph27.4 kmh 29.95 in1014.2 mb 0.01 in0.3 mm 0.00 in0.0 mm 0.13 in3.3 mm
05:10 AM 47.7°F8.7°C 44.0°F6.7°C 87% 13.0 mph NW20.9 kmh NW 17.0 mph27.4 kmh 29.95 in1014.2 mb 0.01 in0.3 mm 0.00 in0.0 mm 0.13 in3.3 mm
05:12 AM 47.7°F8.7°C 44.0°F6.7°C 87% 9.0 mph NNW14.5 kmh NNW 17.0 mph27.4 kmh 29.95 in1014.2 mb 0.01 in0.3 mm 0.00 in0.0 mm 0.13 in3.3 mm
05:14 AM 47.7°F8.7°C 44.3°F6.8°C 88% 8.0 mph N12.9 kmh N 18.0 mph29.0 kmh 29.95 in1014.2 mb 0.01 in0.3 mm 0.00 in0.0 mm 0.13 in3.3 mm
05:16 AM 47.7°F8.7°C 44.3°F6.8°C 88% 9.0 mph NNW14.5 kmh NNW 18.0 mph29.0 kmh 29.95 in1014.2 mb 0.01 in0.3 mm 0.00 in0.0 mm 0.13 in3.3 mm
05:18 AM 47.7°F8.7°C 44.0°F6.7°C 87% 6.0 mph NW9.7 kmh NW 18.0 mph29.0 kmh 29.95 in1014.2 mb 0.01 in0.3 mm 0.00 in0.0 mm 0.13 in3.3 mm
05:20 AM 47.7°F8.7°C 44.0°F6.7°C 87% 4.0 mph N6.4 kmh N 18.0 mph29.0 kmh 29.95 in1014.2 mb 0.01 in0.3 mm 0.00 in0.0 mm 0.13 in3.3 mm
05:22 AM 47.5°F8.6°C 43.8°F6.6°C 87% 10.0 mph NW16.1 kmh NW 20.0 mph32.2 kmh 29.95 in1014.2 mb 0.01 in0.3 mm 0.00 in0.0 mm 0.13 in3.3 mm
05:24 AM 47.3°F8.5°C 43.6°F6.4°C 87% 10.0 mph NW16.1 kmh NW 21.0 mph33.8 kmh 29.95 in1014.2 mb 0.01 in0.3 mm 0.00 in0.0 mm 0.13 in3.3 mm
05:26 AM 47.2°F8.4°C 43.2°F6.2°C 86% 5.0 mph N8.0 kmh N 21.0 mph33.8 kmh 29.96 in1014.6 mb 0.01 in0.3 mm 0.00 in0.0 mm 0.13 in3.3 mm
05:28 AM 47.2°F8.4°C 43.2°F6.2°C 86% 15.0 mph NW24.1 kmh NW 21.0 mph33.8 kmh 29.97 in1014.9 mb 0.01 in0.3 mm 0.00 in0.0 mm 0.13 in3.3 mm
05:30 AM 47.1°F8.4°C 43.1°F6.2°C 86% 11.0 mph NW17.7 kmh NW 21.0 mph33.8 kmh 29.97 in1014.9 mb 0.01 in0.3 mm 0.00 in0.0 mm 0.13 in3.3 mm
05:32 AM 47.1°F8.4°C 43.1°F6.2°C 86% 14.0 mph NNW22.5 kmh NNW 21.0 mph33.8 kmh 29.98 in1015.2 mb 0.01 in0.3 mm 0.00 in0.0 mm 0.13 in3.3 mm
05:34 AM 47.0°F8.3°C 43.0°F6.1°C 86% 15.0 mph NW24.1 kmh NW 17.0 mph27.4 kmh 29.97 in1014.9 mb 0.00 in0.0 mm 0.00 in0.0 mm 0.13 in3.3 mm
05:36 AM 46.9°F8.3°C 42.9°F6.1°C 86% 2.0 mph N3.2 kmh N 17.0 mph27.4 kmh 29.97 in1014.9 mb 0.00 in0.0 mm 0.00 in0.0 mm 0.13 in3.3 mm
05:38 AM 46.8°F8.2°C 42.8°F6.0°C 86% 4.0 mph NNW6.4 kmh NNW 17.0 mph27.4 kmh 29.98 in1015.2 mb 0.00 in0.0 mm 0.00 in0.0 mm 0.13 in3.3 mm
05:40 AM 46.7°F8.2°C 42.7°F5.9°C 86% 14.0 mph NW22.5 kmh NW 17.0 mph27.4 kmh 29.98 in1015.2 mb 0.00 in0.0 mm 0.00 in0.0 mm 0.13 in3.3 mm
05:42 AM 46.7°F8.2°C 42.4°F5.8°C 85% 8.0 mph N12.9 kmh N 17.0 mph27.4 kmh 29.98 in1015.2 mb 0.01 in0.3 mm 0.30 in7.6 mm 0.14 in3.6 mm
05:44 AM 46.6°F8.1°C 42.3°F5.7°C 85% 9.0 mph N14.5 kmh N 17.0 mph27.4 kmh 29.97 in1014.9 mb 0.01 in0.3 mm 0.00 in0.0 mm 0.14 in3.6 mm
05:46 AM 46.5°F8.1°C 42.2°F5.7°C 85% 9.0 mph NNW14.5 kmh NNW 17.0 mph27.4 kmh 29.97 in1014.9 mb 0.01 in0.3 mm 0.00 in0.0 mm 0.14 in3.6 mm
05:48 AM 46.4°F8.0°C 42.1°F5.6°C 85% 3.0 mph NNW4.8 kmh NNW 17.0 mph27.4 kmh 29.97 in1014.9 mb 0.01 in0.3 mm 0.00 in0.0 mm 0.14 in3.6 mm
05:50 AM 46.4°F8.0°C 42.5°F5.8°C 86% 15.0 mph NNW24.1 kmh NNW 17.0 mph27.4 kmh 29.96 in1014.6 mb 0.01 in0.3 mm 0.00 in0.0 mm 0.14 in3.6 mm
05:52 AM 46.3°F7.9°C 42.4°F5.8°C 86% 10.0 mph N16.1 kmh N 17.0 mph27.4 kmh 29.96 in1014.6 mb 0.01 in0.3 mm 0.00 in0.0 mm 0.14 in3.6 mm
05:54 AM 46.4°F8.0°C 42.5°F5.8°C 86% 5.0 mph NW8.0 kmh NW 17.0 mph27.4 kmh 29.96 in1014.6 mb 0.01 in0.3 mm 0.00 in0.0 mm 0.14 in3.6 mm
05:56 AM 46.4°F8.0°C 42.5°F5.8°C 86% 9.0 mph NW14.5 kmh NW 17.0 mph27.4 kmh 29.97 in1014.9 mb 0.01 in0.3 mm 0.00 in0.0 mm 0.14 in3.6 mm
05:58 AM 46.4°F8.0°C 42.5°F5.8°C 86% 2.0 mph NNE3.2 kmh NNE 17.0 mph27.4 kmh 29.98 in1015.2 mb 0.01 in0.3 mm 0.00 in0.0 mm 0.14 in3.6 mm
06:00 AM 46.3°F7.9°C 42.4°F5.8°C 86% 9.0 mph N14.5 kmh N 17.0 mph27.4 kmh 29.98 in1015.2 mb 0.01 in0.3 mm 0.00 in0.0 mm 0.14 in3.6 mm
06:02 AM 46.3°F7.9°C 42.4°F5.8°C 86% 4.0 mph NNW6.4 kmh NNW 17.0 mph27.4 kmh 29.97 in1014.9 mb 0.01 in0.3 mm 0.00 in0.0 mm 0.14 in3.6 mm
06:04 AM 46.2°F7.9°C 42.3°F5.7°C 86% 9.0 mph NNE14.5 kmh NNE 11.0 mph17.7 kmh 29.98 in1015.2 mb 0.01 in0.3 mm 0.00 in0.0 mm 0.14 in3.6 mm
06:06 AM 46.3°F7.9°C 42.4°F5.8°C 86% 5.0 mph N8.0 kmh N 11.0 mph17.7 kmh 29.98 in1015.2 mb 0.01 in0.3 mm 0.00 in0.0 mm 0.14 in3.6 mm
06:08 AM 46.2°F7.9°C 42.3°F5.7°C 86% 5.0 mph WNW8.0 kmh WNW 11.0 mph17.7 kmh 29.98 in1015.2 mb 0.01 in0.3 mm 0.00 in0.0 mm 0.14 in3.6 mm
06:10 AM 46.2°F7.9°C 42.0°F5.6°C 85% 12.0 mph NW19.3 kmh NW 17.0 mph27.4 kmh 29.98 in1015.2 mb 0.01 in0.3 mm 0.00 in0.0 mm 0.14 in3.6 mm
06:12 AM 46.2°F7.9°C 42.0°F5.6°C 85% 3.0 mph N4.8 kmh N 17.0 mph27.4 kmh 29.99 in1015.6 mb 0.01 in0.3 mm 0.00 in0.0 mm 0.14 in3.6 mm
06:14 AM 46.1°F7.8°C 41.9°F5.5°C 85% 9.0 mph NNW14.5 kmh NNW 17.0 mph27.4 kmh 29.99 in1015.6 mb 0.01 in0.3 mm 0.00 in0.0 mm 0.14 in3.6 mm
06:16 AM 46.1°F7.8°C 41.9°F5.5°C 85% 8.0 mph NW12.9 kmh NW 17.0 mph27.4 kmh 29.99 in1015.6 mb 0.01 in0.3 mm 0.00 in0.0 mm 0.14 in3.6 mm
06:18 AM 46.1°F7.8°C 41.9°F5.5°C 85% 8.0 mph NNW12.9 kmh NNW 17.0 mph27.4 kmh 30.00 in1015.9 mb 0.01 in0.3 mm 0.00 in0.0 mm 0.14 in3.6 mm
06:20 AM 46.1°F7.8°C 41.9°F5.5°C 85% 5.0 mph NW8.0 kmh NW 17.0 mph27.4 kmh 30.00 in1015.9 mb 0.01 in0.3 mm 0.00 in0.0 mm 0.14 in3.6 mm
06:22 AM 46.1°F7.8°C 41.9°F5.5°C 85% 5.0 mph N8.0 kmh N 17.0 mph27.4 kmh 30.00 in1015.9 mb 0.01 in0.3 mm 0.00 in0.0 mm 0.14 in3.6 mm
06:24 AM 46.1°F7.8°C 41.9°F5.5°C 85% 13.0 mph N20.9 kmh N 17.0 mph27.4 kmh 29.99 in1015.6 mb 0.01 in0.3 mm 0.00 in0.0 mm 0.14 in3.6 mm
06:26 AM 45.9°F7.7°C 41.7°F5.4°C 85% 7.0 mph N11.3 kmh N 17.0 mph27.4 kmh 29.99 in1015.6 mb 0.01 in0.3 mm 0.00 in0.0 mm 0.14 in3.6 mm
06:28 AM 45.8°F7.7°C 41.6°F5.3°C 85% 8.0 mph N12.9 kmh N 17.0 mph27.4 kmh 29.99 in1015.6 mb 0.01 in0.3 mm 0.00 in0.0 mm 0.14 in3.6 mm
06:30 AM 45.8°F7.7°C 41.6°F5.3°C 85% 2.0 mph N3.2 kmh N 17.0 mph27.4 kmh 29.99 in1015.6 mb 0.01 in0.3 mm 0.00 in0.0 mm 0.14 in3.6 mm
06:32 AM 45.7°F7.6°C 41.5°F5.3°C 85% 2.0 mph N3.2 kmh N 17.0 mph27.4 kmh 29.98 in1015.2 mb 0.01 in0.3 mm 0.00 in0.0 mm 0.14 in3.6 mm
06:34 AM 45.7°F7.6°C 41.5°F5.3°C 85% 9.0 mph NNW14.5 kmh NNW 11.0 mph17.7 kmh 29.98 in1015.2 mb 0.01 in0.3 mm 0.00 in0.0 mm 0.14 in3.6 mm
06:36 AM 45.6°F7.6°C 41.4°F5.2°C 85% 6.0 mph NE9.7 kmh NE 11.0 mph17.7 kmh 29.98 in1015.2 mb 0.01 in0.3 mm 0.00 in0.0 mm 0.14 in3.6 mm
06:38 AM 45.6°F7.6°C 41.4°F5.2°C 85% 5.0 mph NNW8.0 kmh NNW 13.0 mph20.9 kmh 29.99 in1015.6 mb 0.01 in0.3 mm 0.00 in0.0 mm 0.14 in3.6 mm
06:40 AM 45.6°F7.6°C 41.4°F5.2°C 85% 6.0 mph NE9.7 kmh NE 13.0 mph20.9 kmh 29.99 in1015.6 mb 0.01 in0.3 mm 0.00 in0.0 mm 0.14 in3.6 mm
06:42 AM 45.6°F7.6°C 41.4°F5.2°C 85% 6.0 mph N9.7 kmh N 15.0 mph24.1 kmh 29.99 in1015.6 mb 0.01 in0.3 mm 0.00 in0.0 mm 0.14 in3.6 mm
06:44 AM 45.6°F7.6°C 41.7°F5.4°C 86% 6.0 mph N9.7 kmh N 15.0 mph24.1 kmh 29.99 in1015.6 mb 0.01 in0.3 mm 0.00 in0.0 mm 0.14 in3.6 mm
06:46 AM 45.6°F7.6°C 41.7°F5.4°C 86% 11.0 mph NNW17.7 kmh NNW 15.0 mph24.1 kmh 29.99 in1015.6 mb 0.01 in0.3 mm 0.00 in0.0 mm 0.14 in3.6 mm
06:48 AM 45.6°F7.6°C 41.7°F5.4°C 86% 8.0 mph WNW12.9 kmh WNW 15.0 mph24.1 kmh 29.99 in1015.6 mb 0.01 in0.3 mm 0.00 in0.0 mm 0.14 in3.6 mm
06:50 AM 45.6°F7.6°C 41.7°F5.4°C 86% 8.0 mph N12.9 kmh N 15.0 mph24.1 kmh 29.99 in1015.6 mb 0.01 in0.3 mm 0.00 in0.0 mm 0.14 in3.6 mm
06:52 AM 45.6°F7.6°C 41.7°F5.4°C 86% 5.0 mph NW8.0 kmh NW 15.0 mph24.1 kmh 29.99 in1015.6 mb 0.01 in0.3 mm 0.00 in0.0 mm 0.14 in3.6 mm
06:54 AM 45.6°F7.6°C 41.7°F5.4°C 86% 3.0 mph NNW4.8 kmh NNW 15.0 mph24.1 kmh 29.99 in1015.6 mb 0.01 in0.3 mm 0.00 in0.0 mm 0.14 in3.6 mm
06:56 AM 45.6°F7.6°C 41.7°F5.4°C 86% 6.0 mph NNW9.7 kmh NNW 15.0 mph24.1 kmh 29.99 in1015.6 mb 0.01 in0.3 mm 0.00 in0.0 mm 0.14 in3.6 mm
06:58 AM 45.6°F7.6°C 41.7°F5.4°C 86% 1.0 mph N1.6 kmh N 15.0 mph24.1 kmh 29.99 in1015.6 mb 0.01 in0.3 mm 0.00 in0.0 mm 0.14 in3.6 mm
07:00 AM 45.6°F7.6°C 41.7°F5.4°C 86% 3.0 mph N4.8 kmh N 15.0 mph24.1 kmh 29.99 in1015.6 mb 0.01 in0.3 mm 0.00 in0.0 mm 0.14 in3.6 mm
07:02 AM 45.6°F7.6°C 41.7°F5.4°C 86% 9.0 mph NNW14.5 kmh NNW 15.0 mph24.1 kmh 29.99 in1015.6 mb 0.01 in0.3 mm 0.00 in0.0 mm 0.14 in3.6 mm
07:04 AM 45.5°F7.5°C 41.9°F5.5°C 87% 5.0 mph NNW8.0 kmh NNW 10.0 mph16.1 kmh 29.99 in1015.6 mb 0.00 in0.0 mm 0.00 in0.0 mm 0.14 in3.6 mm
07:06 AM 45.6°F7.6°C 42.0°F5.6°C 87% 6.0 mph N9.7 kmh N 13.0 mph20.9 kmh 29.99 in1015.6 mb 0.00 in0.0 mm 0.00 in0.0 mm 0.14 in3.6 mm
07:08 AM 45.5°F7.5°C 41.9°F5.5°C 87% 8.0 mph NW12.9 kmh NW 13.0 mph20.9 kmh 29.99 in1015.6 mb 0.00 in0.0 mm 0.00 in0.0 mm 0.14 in3.6 mm
07:10 AM 45.5°F7.5°C 41.9°F5.5°C 87% 10.0 mph NNW16.1 kmh NNW 13.0 mph20.9 kmh 29.99 in1015.6 mb 0.00 in0.0 mm 0.00 in0.0 mm 0.14 in3.6 mm
07:12 AM 45.5°F7.5°C 41.9°F5.5°C 87% 5.0 mph NW8.0 kmh NW 13.0 mph20.9 kmh 29.99 in1015.6 mb 0.00 in0.0 mm 0.00 in0.0 mm 0.14 in3.6 mm
07:14 AM 45.6°F7.6°C 42.0°F5.6°C 87% 4.0 mph NNW6.4 kmh NNW 13.0 mph20.9 kmh 29.98 in1015.2 mb 0.00 in0.0 mm 0.00 in0.0 mm 0.14 in3.6 mm
07:16 AM 45.5°F7.5°C 41.9°F5.5°C 87% 10.0 mph NW16.1 kmh NW 13.0 mph20.9 kmh 29.99 in1015.6 mb 0.00 in0.0 mm 0.00 in0.0 mm 0.14 in3.6 mm
07:18 AM 45.5°F7.5°C 41.9°F5.5°C 87% 5.0 mph NNW8.0 kmh NNW 13.0 mph20.9 kmh 29.99 in1015.6 mb 0.00 in0.0 mm 0.00 in0.0 mm 0.14 in3.6 mm
07:20 AM 45.5°F7.5°C 41.9°F5.5°C 87% 14.0 mph NNW22.5 kmh NNW 14.0 mph22.5 kmh 29.99 in1015.6 mb 0.00 in0.0 mm 0.00 in0.0 mm 0.14 in3.6 mm
07:22 AM 45.4°F7.4°C 41.5°F5.3°C 86% 9.0 mph N14.5 kmh N 18.0 mph29.0 kmh 30.00 in1015.9 mb 0.00 in0.0 mm 0.00 in0.0 mm 0.14 in3.6 mm
07:24 AM 45.3°F7.4°C 41.4°F5.2°C 86% 14.0 mph NW22.5 kmh NW 18.0 mph29.0 kmh 30.00 in1015.9 mb 0.00 in0.0 mm 0.00 in0.0 mm 0.14 in3.6 mm
07:26 AM 45.3°F7.4°C 41.1°F5.1°C 85% 13.0 mph NNW20.9 kmh NNW 18.0 mph29.0 kmh 30.01 in1016.3 mb 0.00 in0.0 mm 0.00 in0.0 mm 0.14 in3.6 mm
07:28 AM 45.3°F7.4°C 41.1°F5.1°C 85% 12.0 mph N19.3 kmh N 18.0 mph29.0 kmh 30.01 in1016.3 mb 0.00 in0.0 mm 0.00 in0.0 mm 0.14 in3.6 mm
07:30 AM 45.2°F7.3°C 41.0°F5.0°C 85% 10.0 mph N16.1 kmh N 18.0 mph29.0 kmh 30.01 in1016.3 mb 0.00 in0.0 mm 0.00 in0.0 mm 0.14 in3.6 mm
07:32 AM 45.2°F7.3°C 41.0°F5.0°C 85% 14.0 mph NW22.5 kmh NW 18.0 mph29.0 kmh 30.02 in1016.6 mb 0.00 in0.0 mm 0.00 in0.0 mm 0.14 in3.6 mm
07:34 AM 45.2°F7.3°C 41.0°F5.0°C 85% 8.0 mph WNW12.9 kmh WNW 13.0 mph20.9 kmh 30.03 in1016.9 mb 0.00 in0.0 mm 0.00 in0.0 mm 0.14 in3.6 mm
07:36 AM 45.2°F7.3°C 41.0°F5.0°C 85% 12.0 mph NW19.3 kmh NW 14.0 mph22.5 kmh 30.04 in1017.3 mb 0.01 in0.3 mm 0.30 in7.6 mm 0.15 in3.8 mm
07:38 AM 45.1°F7.3°C 40.6°F4.8°C 84% 9.0 mph NNW14.5 kmh NNW 14.0 mph22.5 kmh 30.03 in1016.9 mb 0.01 in0.3 mm 0.00 in0.0 mm 0.15 in3.8 mm
07:40 AM 45.0°F7.2°C 40.5°F4.7°C 84% 12.0 mph N19.3 kmh N 14.0 mph22.5 kmh 30.01 in1016.3 mb 0.01 in0.3 mm 0.00 in0.0 mm 0.15 in3.8 mm
07:42 AM 45.0°F7.2°C 40.8°F4.9°C 85% 3.0 mph NE4.8 kmh NE 14.0 mph22.5 kmh 30.00 in1015.9 mb 0.01 in0.3 mm 0.00 in0.0 mm 0.15 in3.8 mm
07:44 AM 44.9°F7.2°C 40.7°F4.8°C 85% 2.0 mph NNW3.2 kmh NNW 14.0 mph22.5 kmh 30.00 in1015.9 mb 0.01 in0.3 mm 0.00 in0.0 mm 0.15 in3.8 mm
07:46 AM 44.9°F7.2°C 40.7°F4.8°C 85% Calm Calm 14.0 mph22.5 kmh 30.01 in1016.3 mb 0.01 in0.3 mm 0.00 in0.0 mm 0.15 in3.8 mm
07:48 AM 44.9°F7.2°C 40.7°F4.8°C 85% 5.0 mph N8.0 kmh N 14.0 mph22.5 kmh 30.01 in1016.3 mb 0.01 in0.3 mm 0.00 in0.0 mm 0.15 in3.8 mm
07:50 AM 44.9°F7.2°C 40.7°F4.8°C 85% 2.0 mph NNE3.2 kmh NNE 14.0 mph22.5 kmh 30.00 in1015.9 mb 0.01 in0.3 mm 0.00 in0.0 mm 0.15 in3.8 mm
07:52 AM 44.9°F7.2°C 40.7°F4.8°C 85% 4.0 mph NNW6.4 kmh NNW 14.0 mph22.5 kmh 30.00 in1015.9 mb 0.02 in0.5 mm 0.30 in7.6 mm 0.16 in4.1 mm
07:54 AM 44.9°F7.2°C 41.0°F5.0°C 86% 3.0 mph NE4.8 kmh NE 14.0 mph22.5 kmh 30.00 in1015.9 mb 0.02 in0.5 mm 0.00 in0.0 mm 0.16 in4.1 mm
07:56 AM 44.9°F7.2°C 40.7°F4.8°C 85% 9.0 mph NNE14.5 kmh NNE 14.0 mph22.5 kmh 30.00 in1015.9 mb 0.02 in0.5 mm 0.00 in0.0 mm 0.16 in4.1 mm
07:58 AM 44.8°F7.1°C 40.6°F4.8°C 85% 5.0 mph NE8.0 kmh NE 14.0 mph22.5 kmh 29.99 in1015.6 mb 0.02 in0.5 mm 0.00 in0.0 mm 0.16 in4.1 mm
08:00 AM 44.8°F7.1°C 40.9°F4.9°C 86% 6.0 mph N9.7 kmh N 14.0 mph22.5 kmh 29.99 in1015.6 mb 0.02 in0.5 mm 0.00 in0.0 mm 0.16 in4.1 mm
08:02 AM 44.7°F7.1°C 40.8°F4.9°C 86% 9.0 mph NW14.5 kmh NW 14.0 mph22.5 kmh 30.00 in1015.9 mb 0.02 in0.5 mm 0.00 in0.0 mm 0.16 in4.1 mm
08:04 AM 44.7°F7.1°C 40.8°F4.9°C 86% 6.0 mph NW9.7 kmh NW 13.0 mph20.9 kmh 30.00 in1015.9 mb 0.02 in0.5 mm 0.00 in0.0 mm 0.16 in4.1 mm
08:06 AM 44.7°F7.1°C 40.8°F4.9°C 86% 5.0 mph NNW8.0 kmh NNW 13.0 mph20.9 kmh 29.99 in1015.6 mb 0.02 in0.5 mm 0.00 in0.0 mm 0.16 in4.1 mm
08:08 AM 44.8°F7.1°C 40.9°F4.9°C 86% 5.0 mph NNW8.0 kmh NNW 13.0 mph20.9 kmh 29.99 in1015.6 mb 0.02 in0.5 mm 0.00 in0.0 mm 0.16 in4.1 mm
08:10 AM 44.7°F7.1°C 40.8°F4.9°C 86% 10.0 mph NNW16.1 kmh NNW 13.0 mph20.9 kmh 29.98 in1015.2 mb 0.03 in0.8 mm 0.30 in7.6 mm 0.17 in4.3 mm
08:12 AM 44.8°F7.1°C 40.9°F4.9°C 86% 6.0 mph N9.7 kmh N 13.0 mph20.9 kmh 29.98 in1015.2 mb 0.03 in0.8 mm 0.00 in0.0 mm 0.17 in4.3 mm
08:14 AM 44.8°F7.1°C 40.9°F4.9°C 86% 6.0 mph NW9.7 kmh NW 13.0 mph20.9 kmh 30.00 in1015.9 mb 0.03 in0.8 mm 0.00 in0.0 mm 0.17 in4.3 mm
08:16 AM 44.8°F7.1°C 40.9°F4.9°C 86% 8.0 mph N12.9 kmh N 14.0 mph22.5 kmh 30.00 in1015.9 mb 0.03 in0.8 mm 0.00 in0.0 mm 0.17 in4.3 mm
08:18 AM 44.8°F7.1°C 40.9°F4.9°C 86% 8.0 mph N12.9 kmh N 14.0 mph22.5 kmh 30.01 in1016.3 mb 0.03 in0.8 mm 0.00 in0.0 mm 0.17 in4.3 mm
08:20 AM 44.9°F7.2°C 41.3°F5.2°C 87% 5.0 mph NW8.0 kmh NW 14.0 mph22.5 kmh 30.03 in1016.9 mb 0.03 in0.8 mm 0.00 in0.0 mm 0.17 in4.3 mm
08:22 AM 45.0°F7.2°C 41.4°F5.2°C 87% 9.0 mph NW14.5 kmh NW 14.0 mph22.5 kmh 30.04 in1017.3 mb 0.03 in0.8 mm 0.00 in0.0 mm 0.17 in4.3 mm
08:24 AM 45.0°F7.2°C 41.4°F5.2°C 87% 9.0 mph NW14.5 kmh NW 14.0 mph22.5 kmh 30.04 in1017.3 mb 0.03 in0.8 mm 0.00 in0.0 mm 0.17 in4.3 mm
08:26 AM 45.2°F7.3°C 41.3°F5.2°C 86% 5.0 mph WNW8.0 kmh WNW 15.0 mph24.1 kmh 30.04 in1017.3 mb 0.03 in0.8 mm 0.00 in0.0 mm 0.17 in4.3 mm
08:28 AM 45.3°F7.4°C 41.4°F5.2°C 86% 16.0 mph NNW25.7 kmh NNW 16.0 mph25.7 kmh 30.03 in1016.9 mb 0.03 in0.8 mm 0.00 in0.0 mm 0.17 in4.3 mm
08:30 AM 45.2°F7.3°C 41.3°F5.2°C 86% 9.0 mph NW14.5 kmh NW 16.0 mph25.7 kmh 30.03 in1016.9 mb 0.03 in0.8 mm 0.00 in0.0 mm 0.17 in4.3 mm
08:32 AM 45.2°F7.3°C 41.3°F5.2°C 86% 9.0 mph NNW14.5 kmh NNW 16.0 mph25.7 kmh 30.03 in1016.9 mb 0.03 in0.8 mm 0.00 in0.0 mm 0.17 in4.3 mm
08:34 AM 45.3°F7.4°C 41.4°F5.2°C 86% 4.0 mph NW6.4 kmh NW 12.0 mph19.3 kmh 30.03 in1016.9 mb 0.03 in0.8 mm 0.00 in0.0 mm 0.17 in4.3 mm
08:36 AM 45.3°F7.4°C 41.4°F5.2°C 86% 12.0 mph NW19.3 kmh NW 12.0 mph19.3 kmh 30.03 in1016.9 mb 0.03 in0.8 mm 0.00 in0.0 mm 0.17 in4.3 mm
08:37 AM 45.3°F7.4°C 41.1°F5.1°C 85% 6.0 mph NNW9.7 kmh NNW 12.0 mph19.3 kmh 30.04 in1017.3 mb 0.03 in0.8 mm 0.00 in0.0 mm 0.17 in4.3 mm
08:40 AM 45.3°F7.4°C 41.4°F5.2°C 86% 3.0 mph N4.8 kmh N 12.0 mph19.3 kmh 30.04 in1017.3 mb 0.03 in0.8 mm 0.00 in0.0 mm 0.17 in4.3 mm
08:42 AM 45.4°F7.4°C 41.5°F5.3°C 86% 10.0 mph WNW16.1 kmh WNW 12.0 mph19.3 kmh 30.04 in1017.3 mb 0.03 in0.8 mm 0.00 in0.0 mm 0.17 in4.3 mm
08:44 AM 45.5°F7.5°C 41.6°F5.3°C 86% 10.0 mph NW16.1 kmh NW 13.0 mph20.9 kmh 30.04 in1017.3 mb 0.03 in0.8 mm 0.00 in0.0 mm 0.17 in4.3 mm
08:46 AM 45.5°F7.5°C 41.3°F5.2°C 85% 8.0 mph NW12.9 kmh NW 14.0 mph22.5 kmh 30.05 in1017.6 mb 0.03 in0.8 mm 0.00 in0.0 mm 0.17 in4.3 mm
08:48 AM 45.4°F7.4°C 41.2°F5.1°C 85% 17.0 mph NNW27.4 kmh NNW 18.0 mph29.0 kmh 30.05 in1017.6 mb 0.03 in0.8 mm 0.00 in0.0 mm 0.17 in4.3 mm
08:50 AM 45.3°F7.4°C 41.1°F5.1°C 85% 10.0 mph WNW16.1 kmh WNW 18.0 mph29.0 kmh 30.05 in1017.6 mb 0.03 in0.8 mm 0.00 in0.0 mm 0.17 in4.3 mm
08:52 AM 45.3°F7.4°C 41.1°F5.1°C 85% 9.0 mph NNW14.5 kmh NNW 18.0 mph29.0 kmh 30.05 in1017.6 mb 0.03 in0.8 mm 0.00 in0.0 mm 0.17 in4.3 mm
08:54 AM 45.2°F7.3°C 41.0°F5.0°C 85% 8.0 mph NW12.9 kmh NW 18.0 mph29.0 kmh 30.05 in1017.6 mb 0.03 in0.8 mm 0.00 in0.0 mm 0.17 in4.3 mm
08:56 AM 45.2°F7.3°C 41.0°F5.0°C 85% 9.0 mph NW14.5 kmh NW 18.0 mph29.0 kmh 30.05 in1017.6 mb 0.04 in1.0 mm 0.30 in7.6 mm 0.18 in4.6 mm
08:58 AM 45.1°F7.3°C 40.6°F4.8°C 84% 9.0 mph NW14.5 kmh NW 18.0 mph29.0 kmh 30.04 in1017.3 mb 0.04 in1.0 mm 0.00 in0.0 mm 0.18 in4.6 mm
09:00 AM 45.2°F7.3°C 40.7°F4.8°C 84% 5.0 mph NW8.0 kmh NW 18.0 mph29.0 kmh 30.04 in1017.3 mb 0.04 in1.0 mm 0.00 in0.0 mm 0.18 in4.6 mm
09:02 AM 45.2°F7.3°C 41.0°F5.0°C 85% 8.0 mph WNW12.9 kmh WNW 18.0 mph29.0 kmh 30.04 in1017.3 mb 0.04 in1.0 mm 0.00 in0.0 mm 0.18 in4.6 mm
09:04 AM 45.2°F7.3°C 41.0°F5.0°C 85% 8.0 mph NW12.9 kmh NW 13.0 mph20.9 kmh 30.04 in1017.3 mb 0.02 in0.5 mm 0.00 in0.0 mm 0.18 in4.6 mm
09:06 AM 45.2°F7.3°C 41.0°F5.0°C 85% 6.0 mph N9.7 kmh N 16.0 mph25.7 kmh 30.04 in1017.3 mb 0.02 in0.5 mm 0.00 in0.0 mm 0.18 in4.6 mm
09:08 AM 45.3°F7.4°C 41.1°F5.1°C 85% 10.0 mph NNW16.1 kmh NNW 16.0 mph25.7 kmh 30.04 in1017.3 mb 0.02 in0.5 mm 0.00 in0.0 mm 0.18 in4.6 mm
09:10 AM 45.3°F7.4°C 41.1°F5.1°C 85% 10.0 mph NW16.1 kmh NW 17.0 mph27.4 kmh 30.05 in1017.6 mb 0.02 in0.5 mm 0.00 in0.0 mm 0.18 in4.6 mm
09:12 AM 45.3°F7.4°C 41.1°F5.1°C 85% 9.0 mph NW14.5 kmh NW 17.0 mph27.4 kmh 30.05 in1017.6 mb 0.02 in0.5 mm 0.00 in0.0 mm 0.18 in4.6 mm
09:14 AM 45.3°F7.4°C 41.1°F5.1°C 85% 7.0 mph WNW11.3 kmh WNW 17.0 mph27.4 kmh 30.05 in1017.6 mb 0.02 in0.5 mm 0.00 in0.0 mm 0.18 in4.6 mm
09:16 AM 45.3°F7.4°C 41.1°F5.1°C 85% 15.0 mph NW24.1 kmh NW 17.0 mph27.4 kmh 30.06 in1017.9 mb 0.02 in0.5 mm 0.00 in0.0 mm 0.18 in4.6 mm
09:18 AM 45.2°F7.3°C 40.7°F4.8°C 84% 8.0 mph NNW12.9 kmh NNW 17.0 mph27.4 kmh 30.07 in1018.3 mb 0.02 in0.5 mm 0.00 in0.0 mm 0.18 in4.6 mm
09:20 AM 45.3°F7.4°C 40.8°F4.9°C 84% 8.0 mph NW12.9 kmh NW 17.0 mph27.4 kmh 30.06 in1017.9 mb 0.02 in0.5 mm 0.00 in0.0 mm 0.18 in4.6 mm
09:22 AM 45.3°F7.4°C 40.8°F4.9°C 84% 12.0 mph NW19.3 kmh NW 17.0 mph27.4 kmh 30.06 in1017.9 mb 0.02 in0.5 mm 0.00 in0.0 mm 0.18 in4.6 mm
09:24 AM 45.3°F7.4°C 40.8°F4.9°C 84% 6.0 mph NW9.7 kmh NW 17.0 mph27.4 kmh 30.05 in1017.6 mb 0.02 in0.5 mm 0.00 in0.0 mm 0.18 in4.6 mm
09:26 AM 45.4°F7.4°C 40.9°F4.9°C 84% 10.0 mph NW16.1 kmh NW 17.0 mph27.4 kmh 30.05 in1017.6 mb 0.02 in0.5 mm 0.00 in0.0 mm 0.18 in4.6 mm
09:28 AM 45.5°F7.5°C 41.3°F5.2°C 85% 9.0 mph N14.5 kmh N 17.0 mph27.4 kmh 30.05 in1017.6 mb 0.02 in0.5 mm 0.00 in0.0 mm 0.18 in4.6 mm
09:30 AM 45.4°F7.4°C 41.2°F5.1°C 85% 5.0 mph WNW8.0 kmh WNW 17.0 mph27.4 kmh 30.07 in1018.3 mb 0.02 in0.5 mm 0.00 in0.0 mm 0.18 in4.6 mm
09:32 AM 45.5°F7.5°C 41.3°F5.2°C 85% 15.0 mph NNW24.1 kmh NNW 17.0 mph27.4 kmh 30.08 in1018.6 mb 0.02 in0.5 mm 0.00 in0.0 mm 0.18 in4.6 mm
09:34 AM 45.5°F7.5°C 41.0°F5.0°C 84% 17.0 mph NW27.4 kmh NW 17.0 mph27.4 kmh 30.08 in1018.6 mb 0.01 in0.3 mm 0.00 in0.0 mm 0.18 in4.6 mm
09:36 AM 45.4°F7.4°C 40.9°F4.9°C 84% 11.0 mph NW17.7 kmh NW 17.0 mph27.4 kmh 30.08 in1018.6 mb 0.01 in0.3 mm 0.00 in0.0 mm 0.18 in4.6 mm
09:38 AM 45.4°F7.4°C 40.9°F4.9°C 84% 6.0 mph N9.7 kmh N 17.0 mph27.4 kmh 30.08 in1018.6 mb 0.01 in0.3 mm 0.00 in0.0 mm 0.18 in4.6 mm
09:40 AM 45.4°F7.4°C 40.9°F4.9°C 84% 4.0 mph NNW6.4 kmh NNW 17.0 mph27.4 kmh 30.08 in1018.6 mb 0.01 in0.3 mm 0.00 in0.0 mm 0.18 in4.6 mm
09:42 AM 45.4°F7.4°C 40.9°F4.9°C 84% 10.0 mph NW16.1 kmh NW 17.0 mph27.4 kmh 30.08 in1018.6 mb 0.01 in0.3 mm 0.00 in0.0 mm 0.18 in4.6 mm
09:44 AM 45.3°F7.4°C 40.8°F4.9°C 84% 9.0 mph NNW14.5 kmh NNW 17.0 mph27.4 kmh 30.08 in1018.6 mb 0.01 in0.3 mm 0.00 in0.0 mm 0.18 in4.6 mm
09:46 AM 45.2°F7.3°C 40.7°F4.8°C 84% 12.0 mph NW19.3 kmh NW 18.0 mph29.0 kmh 30.08 in1018.6 mb 0.01 in0.3 mm 0.00 in0.0 mm 0.18 in4.6 mm
09:48 AM 45.1°F7.3°C 40.6°F4.8°C 84% 16.0 mph NW25.7 kmh NW 18.0 mph29.0 kmh 30.08 in1018.6 mb 0.01 in0.3 mm 0.00 in0.0 mm 0.18 in4.6 mm
09:50 AM 45.0°F7.2°C 40.5°F4.7°C 84% 12.0 mph NW19.3 kmh NW 23.0 mph37.0 kmh 30.08 in1018.6 mb 0.01 in0.3 mm 0.00 in0.0 mm 0.18 in4.6 mm
09:52 AM 44.9°F7.2°C 40.4°F4.7°C 84% 19.0 mph NNW30.6 kmh NNW 23.0 mph37.0 kmh 30.08 in1018.6 mb 0.01 in0.3 mm 0.00 in0.0 mm 0.18 in4.6 mm
09:54 AM 44.9°F7.2°C 40.4°F4.7°C 84% 10.0 mph NW16.1 kmh NW 23.0 mph37.0 kmh 30.07 in1018.3 mb 0.01 in0.3 mm 0.00 in0.0 mm 0.18 in4.6 mm
09:56 AM 44.8°F7.1°C 40.0°F4.4°C 83% 15.0 mph NW24.1 kmh NW 23.0 mph37.0 kmh 30.07 in1018.3 mb 0.01 in0.3 mm 0.00 in0.0 mm 0.18 in4.6 mm
09:58 AM 44.8°F7.1°C 40.0°F4.4°C 83% 5.0 mph NW8.0 kmh NW 23.0 mph37.0 kmh 30.07 in1018.3 mb 0.01 in0.3 mm 0.00 in0.0 mm 0.18 in4.6 mm
10:00 AM 44.8°F7.1°C 40.3°F4.6°C 84% 12.0 mph NNW19.3 kmh NNW 23.0 mph37.0 kmh 30.08 in1018.6 mb 0.01 in0.3 mm 0.00 in0.0 mm 0.18 in4.6 mm
10:02 AM 44.9°F7.2°C 40.4°F4.7°C 84% 10.0 mph NW16.1 kmh NW 23.0 mph37.0 kmh 30.08 in1018.6 mb 0.01 in0.3 mm 0.00 in0.0 mm 0.18 in4.6 mm
10:04 AM 44.8°F7.1°C 40.0°F4.4°C 83% 12.0 mph NW19.3 kmh NW 21.0 mph33.8 kmh 30.08 in1018.6 mb 0.00 in0.0 mm 0.00 in0.0 mm 0.18 in4.6 mm
10:06 AM 44.7°F7.1°C 39.9°F4.4°C 83% 12.0 mph WNW19.3 kmh WNW 22.0 mph35.4 kmh 30.08 in1018.6 mb 0.00 in0.0 mm 0.00 in0.0 mm 0.18 in4.6 mm
10:08 AM 44.7°F7.1°C 39.9°F4.4°C 83% 15.0 mph NW24.1 kmh NW 22.0 mph35.4 kmh 30.08 in1018.6 mb 0.00 in0.0 mm 0.00 in0.0 mm 0.18 in4.6 mm
10:10 AM 44.6°F7.0°C 39.8°F4.3°C 83% 16.0 mph WNW25.7 kmh WNW 22.0 mph35.4 kmh 30.08 in1018.6 mb 0.00 in0.0 mm 0.00 in0.0 mm 0.18 in4.6 mm
10:12 AM 44.6°F7.0°C 39.8°F4.3°C 83% 10.0 mph NNW16.1 kmh NNW 22.0 mph35.4 kmh 30.08 in1018.6 mb 0.00 in0.0 mm 0.00 in0.0 mm 0.18 in4.6 mm
10:14 AM 44.7°F7.1°C 39.9°F4.4°C 83% 13.0 mph NNW20.9 kmh NNW 22.0 mph35.4 kmh 30.08 in1018.6 mb 0.00 in0.0 mm 0.00 in0.0 mm 0.18 in4.6 mm
10:16 AM 44.7°F7.1°C 39.9°F4.4°C 83% 8.0 mph NNW12.9 kmh NNW 22.0 mph35.4 kmh 30.08 in1018.6 mb 0.00 in0.0 mm 0.00 in0.0 mm 0.18 in4.6 mm
10:18 AM 44.7°F7.1°C 39.9°F4.4°C 83% 13.0 mph WNW20.9 kmh WNW 22.0 mph35.4 kmh 30.08 in1018.6 mb 0.00 in0.0 mm 0.00 in0.0 mm 0.18 in4.6 mm
10:20 AM 44.7°F7.1°C 39.9°F4.4°C 83% 11.0 mph WNW17.7 kmh WNW 22.0 mph35.4 kmh 30.09 in1019.0 mb 0.00 in0.0 mm 0.00 in0.0 mm 0.18 in4.6 mm
10:22 AM 44.6°F7.0°C 39.5°F4.2°C 82% 18.0 mph NNW29.0 kmh NNW 22.0 mph35.4 kmh 30.09 in1019.0 mb 0.00 in0.0 mm 0.00 in0.0 mm 0.18 in4.6 mm
10:24 AM 44.6°F7.0°C 39.8°F4.3°C 83% 9.0 mph NW14.5 kmh NW 22.0 mph35.4 kmh 30.09 in1019.0 mb 0.00 in0.0 mm 0.00 in0.0 mm 0.18 in4.6 mm
10:26 AM 44.5°F6.9°C 39.7°F4.3°C 83% 6.0 mph NNW9.7 kmh NNW 22.0 mph35.4 kmh 30.08 in1018.6 mb 0.00 in0.0 mm 0.00 in0.0 mm 0.18 in4.6 mm
10:28 AM 44.5°F6.9°C 39.7°F4.3°C 83% 15.0 mph NW24.1 kmh NW 22.0 mph35.4 kmh 30.08 in1018.6 mb 0.00 in0.0 mm 0.00 in0.0 mm 0.18 in4.6 mm
10:30 AM 44.5°F6.9°C 39.7°F4.3°C 83% 14.0 mph NW22.5 kmh NW 22.0 mph35.4 kmh 30.08 in1018.6 mb 0.00 in0.0 mm 0.00 in0.0 mm 0.18 in4.6 mm
10:32 AM 44.5°F6.9°C 39.7°F4.3°C 83% 16.0 mph NW25.7 kmh NW 22.0 mph35.4 kmh 30.08 in1018.6 mb 0.00 in0.0 mm 0.00 in0.0 mm 0.18 in4.6 mm
10:34 AM 44.5°F6.9°C 39.7°F4.3°C 83% 5.0 mph NW8.0 kmh NW 17.0 mph27.4 kmh 30.08 in1018.6 mb 0.00 in0.0 mm 0.00 in0.0 mm 0.18 in4.6 mm
10:36 AM 44.6°F7.0°C 39.8°F4.3°C 83% 15.0 mph NW24.1 kmh NW 17.0 mph27.4 kmh 30.08 in1018.6 mb 0.00 in0.0 mm 0.00 in0.0 mm 0.18 in4.6 mm
10:38 AM 44.7°F7.1°C 39.9°F4.4°C 83% 9.0 mph NNW14.5 kmh NNW 17.0 mph27.4 kmh 30.08 in1018.6 mb 0.00 in0.0 mm 0.00 in0.0 mm 0.18 in4.6 mm
10:40 AM 44.7°F7.1°C 39.9°F4.4°C 83% 9.0 mph N14.5 kmh N 17.0 mph27.4 kmh 30.08 in1018.6 mb 0.00 in0.0 mm 0.00 in0.0 mm 0.18 in4.6 mm
10:42 AM 44.8°F7.1°C 40.0°F4.4°C 83% 4.0 mph NW6.4 kmh NW 17.0 mph27.4 kmh 30.08 in1018.6 mb 0.00 in0.0 mm 0.00 in0.0 mm 0.18 in4.6 mm
10:44 AM 44.9°F7.2°C 40.1°F4.5°C 83% 11.0 mph NNW17.7 kmh NNW 17.0 mph27.4 kmh 30.08 in1018.6 mb 0.00 in0.0 mm 0.00 in0.0 mm 0.18 in4.6 mm
10:46 AM 45.0°F7.2°C 40.2°F4.6°C 83% 16.0 mph NW25.7 kmh NW 17.0 mph27.4 kmh 30.08 in1018.6 mb 0.00 in0.0 mm 0.00 in0.0 mm 0.18 in4.6 mm
10:48 AM 44.9°F7.2°C 39.8°F4.3°C 82% 16.0 mph NW25.7 kmh NW 18.0 mph29.0 kmh 30.08 in1018.6 mb 0.00 in0.0 mm 0.00 in0.0 mm 0.18 in4.6 mm
10:50 AM 44.9°F7.2°C 39.8°F4.3°C 82% 15.0 mph NW24.1 kmh NW 21.0 mph33.8 kmh 30.08 in1018.6 mb 0.00 in0.0 mm 0.00 in0.0 mm 0.18 in4.6 mm
10:52 AM 44.9°F7.2°C 39.8°F4.3°C 82% 9.0 mph NW14.5 kmh NW 22.0 mph35.4 kmh 30.08 in1018.6 mb 0.00 in0.0 mm 0.00 in0.0 mm 0.18 in4.6 mm
10:54 AM 44.8°F7.1°C 39.7°F4.3°C 82% 13.0 mph NW20.9 kmh NW 22.0 mph35.4 kmh 30.08 in1018.6 mb 0.00 in0.0 mm 0.00 in0.0 mm 0.18 in4.6 mm
10:56 AM 44.7°F7.1°C 39.6°F4.2°C 82% 8.0 mph NW12.9 kmh NW 22.0 mph35.4 kmh 30.08 in1018.6 mb 0.00 in0.0 mm 0.00 in0.0 mm 0.18 in4.6 mm
10:58 AM 44.7°F7.1°C 39.9°F4.4°C 83% 12.0 mph NNW19.3 kmh NNW 22.0 mph35.4 kmh 30.08 in1018.6 mb 0.00 in0.0 mm 0.00 in0.0 mm 0.18 in4.6 mm
11:00 AM 44.8°F7.1°C 40.0°F4.4°C 83% 16.0 mph NW25.7 kmh NW 22.0 mph35.4 kmh 30.08 in1018.6 mb 0.00 in0.0 mm 0.00 in0.0 mm 0.18 in4.6 mm
11:02 AM 44.6°F7.0°C 39.8°F4.3°C 83% 11.0 mph NW17.7 kmh NW 22.0 mph35.4 kmh 30.07 in1018.3 mb 0.00 in0.0 mm 0.00 in0.0 mm 0.18 in4.6 mm
11:04 AM 44.7°F7.1°C 39.6°F4.2°C 82% 6.0 mph N9.7 kmh N 14.0 mph22.5 kmh 30.08 in1018.6 mb 0.00 in0.0 mm 0.00 in0.0 mm 0.18 in4.6 mm
11:06 AM 44.8°F7.1°C 40.0°F4.4°C 83% 11.0 mph N17.7 kmh N 15.0 mph24.1 kmh 30.07 in1018.3 mb 0.00 in0.0 mm 0.00 in0.0 mm 0.18 in4.6 mm
11:08 AM 44.8°F7.1°C 39.7°F4.3°C 82% 17.0 mph NW27.4 kmh NW 18.0 mph29.0 kmh 30.07 in1018.3 mb 0.00 in0.0 mm 0.00 in0.0 mm 0.18 in4.6 mm
11:10 AM 44.9°F7.2°C 39.8°F4.3°C 82% 9.0 mph NNW14.5 kmh NNW 18.0 mph29.0 kmh 30.07 in1018.3 mb 0.00 in0.0 mm 0.00 in0.0 mm 0.18 in4.6 mm
11:12 AM 45.0°F7.2°C 39.9°F4.4°C 82% 9.0 mph NNW14.5 kmh NNW 18.0 mph29.0 kmh 30.07 in1018.3 mb 0.00 in0.0 mm 0.00 in0.0 mm 0.18 in4.6 mm
11:14 AM 45.0°F7.2°C 39.9°F4.4°C 82% 9.0 mph NNW14.5 kmh NNW 18.0 mph29.0 kmh 30.07 in1018.3 mb 0.00 in0.0 mm 0.00 in0.0 mm 0.18 in4.6 mm
11:16 AM 45.1°F7.3°C 39.9°F4.4°C 82% 8.0 mph N12.9 kmh N 18.0 mph29.0 kmh 30.07 in1018.3 mb 0.00 in0.0 mm 0.00 in0.0 mm 0.18 in4.6 mm
11:18 AM 45.0°F7.2°C 39.5°F4.2°C 81% 10.0 mph NNW16.1 kmh NNW 18.0 mph29.0 kmh 30.07 in1018.3 mb 0.00 in0.0 mm 0.00 in0.0 mm 0.18 in4.6 mm
11:20 AM 45.0°F7.2°C 39.5°F4.2°C 81% 5.0 mph N8.0 kmh N 18.0 mph29.0 kmh 30.08 in1018.6 mb 0.00 in0.0 mm 0.00 in0.0 mm 0.18 in4.6 mm
11:22 AM 45.1°F7.3°C 39.6°F4.2°C 81% 11.0 mph NNW17.7 kmh NNW 18.0 mph29.0 kmh 30.07 in1018.3 mb 0.00 in0.0 mm 0.00 in0.0 mm 0.18 in4.6 mm
11:24 AM 45.2°F7.3°C 40.0°F4.4°C 82% 6.0 mph NW9.7 kmh NW 18.0 mph29.0 kmh 30.07 in1018.3 mb 0.00 in0.0 mm 0.00 in0.0 mm 0.18 in4.6 mm
11:26 AM 45.3°F7.4°C 40.1°F4.5°C 82% 10.0 mph NW16.1 kmh NW 18.0 mph29.0 kmh 30.06 in1017.9 mb 0.00 in0.0 mm 0.00 in0.0 mm 0.18 in4.6 mm
11:28 AM 45.5°F7.5°C 40.3°F4.6°C 82% 8.0 mph NW12.9 kmh NW 18.0 mph29.0 kmh 30.06 in1017.9 mb 0.00 in0.0 mm 0.00 in0.0 mm 0.18 in4.6 mm
11:30 AM 45.6°F7.6°C 40.4°F4.7°C 82% 7.0 mph WNW11.3 kmh WNW 18.0 mph29.0 kmh 30.06 in1017.9 mb 0.00 in0.0 mm 0.00 in0.0 mm 0.18 in4.6 mm
11:32 AM 45.7°F7.6°C 40.2°F4.6°C 81% 13.0 mph NW20.9 kmh NW 18.0 mph29.0 kmh 30.06 in1017.9 mb 0.00 in0.0 mm 0.00 in0.0 mm 0.18 in4.6 mm
11:34 AM 45.7°F7.6°C 40.2°F4.6°C 81% 12.0 mph NW19.3 kmh NW 15.0 mph24.1 kmh 30.06 in1017.9 mb 0.00 in0.0 mm 0.00 in0.0 mm 0.18 in4.6 mm
11:36 AM 45.6°F7.6°C 40.1°F4.5°C 81% 14.0 mph NW22.5 kmh NW 15.0 mph24.1 kmh 30.06 in1017.9 mb 0.00 in0.0 mm 0.00 in0.0 mm 0.18 in4.6 mm
11:38 AM 45.6°F7.6°C 40.1°F4.5°C 81% 10.0 mph NNW16.1 kmh NNW 15.0 mph24.1 kmh 30.06 in1017.9 mb 0.00 in0.0 mm 0.00 in0.0 mm 0.18 in4.6 mm
11:40 AM 45.7°F7.6°C 40.2°F4.6°C 81% 11.0 mph NNW17.7 kmh NNW 15.0 mph24.1 kmh 30.06 in1017.9 mb 0.00 in0.0 mm 0.00 in0.0 mm 0.18 in4.6 mm
11:42 AM 45.8°F7.7°C 40.0°F4.4°C 80% 5.0 mph NW8.0 kmh NW 15.0 mph24.1 kmh 30.05 in1017.6 mb 0.00 in0.0 mm 0.00 in0.0 mm 0.18 in4.6 mm
11:44 AM 46.0°F7.8°C 40.2°F4.6°C 80% 11.0 mph NW17.7 kmh NW 17.0 mph27.4 kmh 30.05 in1017.6 mb 0.00 in0.0 mm 0.00 in0.0 mm 0.18 in4.6 mm
11:46 AM 46.1°F7.8°C 40.3°F4.6°C 80% 13.0 mph NW20.9 kmh NW 17.0 mph27.4 kmh 30.05 in1017.6 mb 0.00 in0.0 mm 0.00 in0.0 mm 0.18 in4.6 mm
11:48 AM 46.1°F7.8°C 40.0°F4.4°C 79% 11.0 mph NW17.7 kmh NW 17.0 mph27.4 kmh 30.05 in1017.6 mb 0.00 in0.0 mm 0.00 in0.0 mm 0.18 in4.6 mm
11:50 AM 46.4°F8.0°C 40.3°F4.6°C 79% 10.0 mph N16.1 kmh N 17.0 mph27.4 kmh 30.05 in1017.6 mb 0.00 in0.0 mm 0.00 in0.0 mm 0.18 in4.6 mm
11:52 AM 46.6°F8.1°C 40.5°F4.7°C 79% 6.0 mph NW9.7 kmh NW 17.0 mph27.4 kmh 30.04 in1017.3 mb 0.00 in0.0 mm 0.00 in0.0 mm 0.18 in4.6 mm
11:54 AM 46.7°F8.2°C 40.5°F4.7°C 79% 8.0 mph NNW12.9 kmh NNW 17.0 mph27.4 kmh 30.04 in1017.3 mb 0.00 in0.0 mm 0.00 in0.0 mm 0.18 in4.6 mm
11:56 AM 46.7°F8.2°C 40.5°F4.7°C 79% 12.0 mph N19.3 kmh N 17.0 mph27.4 kmh 30.04 in1017.3 mb 0.00 in0.0 mm 0.00 in0.0 mm 0.18 in4.6 mm
11:58 AM 46.8°F8.2°C 40.6°F4.8°C 79% 11.0 mph NNW17.7 kmh NNW 17.0 mph27.4 kmh 30.04 in1017.3 mb 0.00 in0.0 mm 0.00 in0.0 mm 0.18 in4.6 mm
12:00 PM 47.0°F8.3°C 40.8°F4.9°C 79% 6.0 mph N9.7 kmh N 17.0 mph27.4 kmh 30.04 in1017.3 mb 0.00 in0.0 mm 0.00 in0.0 mm 0.18 in4.6 mm
12:02 PM 47.2°F8.4°C 41.0°F5.0°C 79% 8.0 mph NNW12.9 kmh NNW 17.0 mph27.4 kmh 30.04 in1017.3 mb 0.00 in0.0 mm 0.00 in0.0 mm 0.18 in4.6 mm
12:04 PM 47.3°F8.5°C 40.8°F4.9°C 78% 4.0 mph NW6.4 kmh NW 10.0 mph16.1 kmh 30.04 in1017.3 mb 0.00 in0.0 mm 0.00 in0.0 mm 0.18 in4.6 mm
12:06 PM 47.4°F8.6°C 40.9°F4.9°C 78% 8.0 mph NNW12.9 kmh NNW 10.0 mph16.1 kmh 30.04 in1017.3 mb 0.00 in0.0 mm 0.00 in0.0 mm 0.18 in4.6 mm
12:08 PM 47.7°F8.7°C 41.5°F5.3°C 79% 5.0 mph N8.0 kmh N 13.0 mph20.9 kmh 30.04 in1017.3 mb 0.00 in0.0 mm 0.00 in0.0 mm 0.18 in4.6 mm
12:10 PM 47.9°F8.8°C 41.4°F5.2°C 78% 12.0 mph NNW19.3 kmh NNW 14.0 mph22.5 kmh 30.04 in1017.3 mb 0.00 in0.0 mm 0.00 in0.0 mm 0.18 in4.6 mm
12:12 PM 48.0°F8.9°C 41.5°F5.3°C 78% 9.0 mph NNW14.5 kmh NNW 14.0 mph22.5 kmh 30.04 in1017.3 mb 0.00 in0.0 mm 0.00 in0.0 mm 0.18 in4.6 mm
12:14 PM 48.1°F8.9°C 41.6°F5.3°C 78% 10.0 mph NW16.1 kmh NW 14.0 mph22.5 kmh 30.04 in1017.3 mb 0.00 in0.0 mm 0.00 in0.0 mm 0.18 in4.6 mm
12:16 PM 48.2°F9.0°C 41.7°F5.4°C 78% 7.0 mph NW11.3 kmh NW 14.0 mph22.5 kmh 30.04 in1017.3 mb 0.00 in0.0 mm 0.00 in0.0 mm 0.18 in4.6 mm
12:18 PM 48.2°F9.0°C 41.3°F5.2°C 77% 9.0 mph NNW14.5 kmh NNW 14.0 mph22.5 kmh 30.04 in1017.3 mb 0.00 in0.0 mm 0.00 in0.0 mm 0.18 in4.6 mm
12:20 PM 48.4°F9.1°C 41.9°F5.5°C 78% 9.0 mph NNW14.5 kmh NNW 15.0 mph24.1 kmh 30.04 in1017.3 mb 0.00 in0.0 mm 0.00 in0.0 mm 0.18 in4.6 mm
12:22 PM 48.5°F9.2°C 41.6°F5.3°C 77% 6.0 mph NNW9.7 kmh NNW 15.0 mph24.1 kmh 30.04 in1017.3 mb 0.00 in0.0 mm 0.00 in0.0 mm 0.18 in4.6 mm
12:24 PM 48.6°F9.2°C 41.7°F5.4°C 77% 13.0 mph NW20.9 kmh NW 19.0 mph30.6 kmh 30.04 in1017.3 mb 0.00 in0.0 mm 0.00 in0.0 mm 0.18 in4.6 mm
12:26 PM 48.6°F9.2°C 41.7°F5.4°C 77% 10.0 mph NW16.1 kmh NW 19.0 mph30.6 kmh 30.04 in1017.3 mb 0.00 in0.0 mm 0.00 in0.0 mm 0.18 in4.6 mm
12:28 PM 48.6°F9.2°C 41.7°F5.4°C 77% 9.0 mph NW14.5 kmh NW 19.0 mph30.6 kmh 30.04 in1017.3 mb 0.00 in0.0 mm 0.00 in0.0 mm 0.18 in4.6 mm
12:30 PM 48.5°F9.2°C 41.6°F5.3°C 77% 10.0 mph NW16.1 kmh NW 19.0 mph30.6 kmh 30.04 in1017.3 mb 0.00 in0.0 mm 0.00 in0.0 mm 0.18 in4.6 mm
12:32 PM 48.5°F9.2°C 41.6°F5.3°C 77% 15.0 mph NW24.1 kmh NW 19.0 mph30.6 kmh 30.04 in1017.3 mb 0.00 in0.0 mm 0.00 in0.0 mm 0.18 in4.6 mm
12:34 PM 48.4°F9.1°C 41.5°F5.3°C 77% 10.0 mph NW16.1 kmh NW 13.0 mph20.9 kmh 30.03 in1016.9 mb 0.00 in0.0 mm 0.00 in0.0 mm 0.18 in4.6 mm
12:36 PM 48.5°F9.2°C 42.0°F5.6°C 78% 4.0 mph NW6.4 kmh NW 13.0 mph20.9 kmh 30.03 in1016.9 mb 0.00 in0.0 mm 0.00 in0.0 mm 0.18 in4.6 mm
12:38 PM 48.6°F9.2°C 42.1°F5.6°C 78% 14.0 mph NNW22.5 kmh NNW 17.0 mph27.4 kmh 30.03 in1016.9 mb 0.00 in0.0 mm 0.00 in0.0 mm 0.18 in4.6 mm
12:40 PM 48.5°F9.2°C 41.6°F5.3°C 77% 13.0 mph NW20.9 kmh NW 17.0 mph27.4 kmh 30.03 in1016.9 mb 0.00 in0.0 mm 0.00 in0.0 mm 0.18 in4.6 mm
12:42 PM 48.6°F9.2°C 41.7°F5.4°C 77% 9.0 mph NW14.5 kmh NW 17.0 mph27.4 kmh 30.03 in1016.9 mb 0.00 in0.0 mm 0.00 in0.0 mm 0.18 in4.6 mm
12:44 PM 48.6°F9.2°C 41.7°F5.4°C 77% 12.0 mph NW19.3 kmh NW 17.0 mph27.4 kmh 30.03 in1016.9 mb 0.00 in0.0 mm 0.00 in0.0 mm 0.18 in4.6 mm
12:46 PM 48.5°F9.2°C 41.6°F5.3°C 77% 10.0 mph WNW16.1 kmh WNW 17.0 mph27.4 kmh 30.03 in1016.9 mb 0.00 in0.0 mm 0.00 in0.0 mm 0.18 in4.6 mm
12:48 PM 48.6°F9.2°C 41.4°F5.2°C 76% 9.0 mph N14.5 kmh N 17.0 mph27.4 kmh 30.03 in1016.9 mb 0.00 in0.0 mm 0.00 in0.0 mm 0.18 in4.6 mm
12:50 PM 48.6°F9.2°C 41.4°F5.2°C 76% 11.0 mph NW17.7 kmh NW 17.0 mph27.4 kmh 30.03 in1016.9 mb 0.00 in0.0 mm 0.00 in0.0 mm 0.18 in4.6 mm
12:52 PM 48.7°F9.3°C 41.5°F5.3°C 76% 10.0 mph NW16.1 kmh NW 17.0 mph27.4 kmh 30.03 in1016.9 mb 0.00 in0.0 mm 0.00 in0.0 mm 0.18 in4.6 mm
12:54 PM 48.7°F9.3°C 41.5°F5.3°C 76% 6.0 mph N9.7 kmh N 17.0 mph27.4 kmh 30.03 in1016.9 mb 0.00 in0.0 mm 0.00 in0.0 mm 0.18 in4.6 mm
12:56 PM 48.8°F9.3°C 41.6°F5.3°C 76% 5.0 mph NNW8.0 kmh NNW 17.0 mph27.4 kmh 30.03 in1016.9 mb 0.00 in0.0 mm 0.00 in0.0 mm 0.18 in4.6 mm
12:58 PM 48.9°F9.4°C 41.7°F5.4°C 76% 11.0 mph NW17.7 kmh NW 17.0 mph27.4 kmh 30.03 in1016.9 mb 0.00 in0.0 mm 0.00 in0.0 mm 0.18 in4.6 mm
01:00 PM 49.0°F9.4°C 41.4°F5.2°C 75% 12.0 mph NW19.3 kmh NW 17.0 mph27.4 kmh 30.03 in1016.9 mb 0.00 in0.0 mm 0.00 in0.0 mm 0.18 in4.6 mm
01:02 PM 48.8°F9.3°C 41.2°F5.1°C 75% 15.0 mph N24.1 kmh N 18.0 mph29.0 kmh 30.02 in1016.6 mb 0.00 in0.0 mm 0.00 in0.0 mm 0.18 in4.6 mm
01:04 PM 48.7°F9.3°C 41.1°F5.1°C 75% 10.0 mph NW16.1 kmh NW 18.0 mph29.0 kmh 30.02 in1016.6 mb 0.00 in0.0 mm 0.00 in0.0 mm 0.18 in4.6 mm
01:06 PM 48.7°F9.3°C 41.5°F5.3°C 76% 5.0 mph NW8.0 kmh NW 18.0 mph29.0 kmh 30.02 in1016.6 mb 0.00 in0.0 mm 0.00 in0.0 mm 0.18 in4.6 mm
01:08 PM 48.8°F9.3°C 41.6°F5.3°C 76% 13.0 mph NW20.9 kmh NW 18.0 mph29.0 kmh 30.02 in1016.6 mb 0.00 in0.0 mm 0.00 in0.0 mm 0.18 in4.6 mm
01:10 PM 48.8°F9.3°C 41.6°F5.3°C 76% 8.0 mph NW12.9 kmh NW 18.0 mph29.0 kmh 30.02 in1016.6 mb 0.00 in0.0 mm 0.00 in0.0 mm 0.18 in4.6 mm
01:12 PM 48.8°F9.3°C 41.6°F5.3°C 76% 10.0 mph NW16.1 kmh NW 18.0 mph29.0 kmh 30.02 in1016.6 mb 0.00 in0.0 mm 0.00 in0.0 mm 0.18 in4.6 mm
01:14 PM 48.9°F9.4°C 41.3°F5.2°C 75% 8.0 mph NW12.9 kmh NW 18.0 mph29.0 kmh 30.02 in1016.6 mb 0.00 in0.0 mm 0.00 in0.0 mm 0.18 in4.6 mm
01:16 PM 48.9°F9.4°C 41.0°F5.0°C 74% 16.0 mph NW25.7 kmh NW 18.0 mph29.0 kmh 30.02 in1016.6 mb 0.00 in0.0 mm 0.00 in0.0 mm 0.18 in4.6 mm
01:18 PM 48.8°F9.3°C 41.2°F5.1°C 75% 9.0 mph NW14.5 kmh NW 18.0 mph29.0 kmh 30.02 in1016.6 mb 0.00 in0.0 mm 0.00 in0.0 mm 0.18 in4.6 mm
01:20 PM 48.7°F9.3°C 41.1°F5.1°C 75% 15.0 mph NW24.1 kmh NW 18.0 mph29.0 kmh 30.02 in1016.6 mb 0.00 in0.0 mm 0.00 in0.0 mm 0.18 in4.6 mm
01:22 PM 48.6°F9.2°C 41.1°F5.1°C 75% 10.0 mph NNW16.1 kmh NNW 18.0 mph29.0 kmh 30.02 in1016.6 mb 0.00 in0.0 mm 0.00 in0.0 mm 0.18 in4.6 mm
01:24 PM 48.6°F9.2°C 41.1°F5.1°C 75% 8.0 mph N12.9 kmh N 18.0 mph29.0 kmh 30.02 in1016.6 mb 0.00 in0.0 mm 0.00 in0.0 mm 0.18 in4.6 mm
01:26 PM 48.7°F9.3°C 41.1°F5.1°C 75% 11.0 mph WNW17.7 kmh WNW 18.0 mph29.0 kmh 30.03 in1016.9 mb 0.00 in0.0 mm 0.00 in0.0 mm 0.18 in4.6 mm
01:28 PM 48.6°F9.2°C 40.7°F4.8°C 74% 11.0 mph NNW17.7 kmh NNW 18.0 mph29.0 kmh 30.02 in1016.6 mb 0.00 in0.0 mm 0.00 in0.0 mm 0.18 in4.6 mm
01:30 PM 48.6°F9.2°C 41.1°F5.1°C 75% 8.0 mph NNW12.9 kmh NNW 18.0 mph29.0 kmh 30.02 in1016.6 mb 0.00 in0.0 mm 0.00 in0.0 mm 0.18 in4.6 mm
01:32 PM 48.5°F9.2°C 41.0°F5.0°C 75% 11.0 mph NW17.7 kmh NW 18.0 mph29.0 kmh 30.02 in1016.6 mb 0.00 in0.0 mm 0.00 in0.0 mm 0.18 in4.6 mm
01:34 PM 48.4°F9.1°C 40.9°F4.9°C 75% 11.0 mph WNW17.7 kmh WNW 14.0 mph22.5 kmh 30.02 in1016.6 mb 0.00 in0.0 mm 0.00 in0.0 mm 0.18 in4.6 mm
01:36 PM 48.5°F9.2°C 41.0°F5.0°C 75% 15.0 mph NW24.1 kmh NW 15.0 mph24.1 kmh 30.02 in1016.6 mb 0.00 in0.0 mm 0.00 in0.0 mm 0.18 in4.6 mm
01:38 PM 48.5°F9.2°C 40.6°F4.8°C 74% 8.0 mph NNW12.9 kmh NNW 15.0 mph24.1 kmh 30.02 in1016.6 mb 0.00 in0.0 mm 0.00 in0.0 mm 0.18 in4.6 mm
01:40 PM 48.4°F9.1°C 40.5°F4.7°C 74% 12.0 mph NW19.3 kmh NW 16.0 mph25.7 kmh 30.02 in1016.6 mb 0.00 in0.0 mm 0.00 in0.0 mm 0.18 in4.6 mm
01:42 PM 48.3°F9.1°C 40.4°F4.7°C 74% 14.0 mph NNW22.5 kmh NNW 17.0 mph27.4 kmh 30.02 in1016.6 mb 0.00 in0.0 mm 0.00 in0.0 mm 0.18 in4.6 mm
01:44 PM 48.4°F9.1°C 40.5°F4.7°C 74% 9.0 mph NW14.5 kmh NW 17.0 mph27.4 kmh 30.02 in1016.6 mb 0.00 in0.0 mm 0.00 in0.0 mm 0.18 in4.6 mm
01:46 PM 48.4°F9.1°C 40.9°F4.9°C 75% 12.0 mph NW19.3 kmh NW 17.0 mph27.4 kmh 30.01 in1016.3 mb 0.00 in0.0 mm 0.00 in0.0 mm 0.18 in4.6 mm
01:48 PM 48.5°F9.2°C 40.6°F4.8°C 74% 13.0 mph NW20.9 kmh NW 17.0 mph27.4 kmh 30.01 in1016.3 mb 0.00 in0.0 mm 0.00 in0.0 mm 0.18 in4.6 mm
01:50 PM 48.5°F9.2°C 40.6°F4.8°C 74% 8.0 mph NW12.9 kmh NW 17.0 mph27.4 kmh 30.01 in1016.3 mb 0.00 in0.0 mm 0.00 in0.0 mm 0.18 in4.6 mm
01:52 PM 48.4°F9.1°C 40.5°F4.7°C 74% 11.0 mph NW17.7 kmh NW 17.0 mph27.4 kmh 30.01 in1016.3 mb 0.00 in0.0 mm 0.00 in0.0 mm 0.18 in4.6 mm
01:54 PM 48.5°F9.2°C 40.6°F4.8°C 74% 12.0 mph NW19.3 kmh NW 17.0 mph27.4 kmh 30.01 in1016.3 mb 0.00 in0.0 mm 0.00 in0.0 mm 0.18 in4.6 mm
01:56 PM 48.5°F9.2°C 40.6°F4.8°C 74% 10.0 mph NW16.1 kmh NW 17.0 mph27.4 kmh 30.01 in1016.3 mb 0.00 in0.0 mm 0.00 in0.0 mm 0.18 in4.6 mm
01:58 PM 48.4°F9.1°C 40.5°F4.7°C 74% 10.0 mph W16.1 kmh W 17.0 mph27.4 kmh 30.00 in1015.9 mb 0.00 in0.0 mm 0.00 in0.0 mm 0.18 in4.6 mm
02:00 PM 48.3°F9.1°C 40.4°F4.7°C 74% 15.0 mph NW24.1 kmh NW 17.0 mph27.4 kmh 30.00 in1015.9 mb 0.00 in0.0 mm 0.00 in0.0 mm 0.18 in4.6 mm
02:02 PM 48.3°F9.1°C 40.4°F4.7°C 74% 18.0 mph NW29.0 kmh NW 18.0 mph29.0 kmh 30.00 in1015.9 mb 0.00 in0.0 mm 0.00 in0.0 mm 0.18 in4.6 mm
02:04 PM 48.3°F9.1°C 40.4°F4.7°C 74% 8.0 mph NW12.9 kmh NW 19.0 mph30.6 kmh 30.01 in1016.3 mb 0.00 in0.0 mm 0.00 in0.0 mm 0.18 in4.6 mm
02:06 PM 48.3°F9.1°C 40.4°F4.7°C 74% 9.0 mph NW14.5 kmh NW 19.0 mph30.6 kmh 30.01 in1016.3 mb 0.00 in0.0 mm 0.00 in0.0 mm 0.18 in4.6 mm
02:08 PM 48.4°F9.1°C 40.5°F4.7°C 74% 11.0 mph NW17.7 kmh NW 19.0 mph30.6 kmh 30.01 in1016.3 mb 0.00 in0.0 mm 0.00 in0.0 mm 0.18 in4.6 mm
02:10 PM 48.4°F9.1°C 40.2°F4.6°C 73% 12.0 mph NW19.3 kmh NW 19.0 mph30.6 kmh 30.01 in1016.3 mb 0.00 in0.0 mm 0.00 in0.0 mm 0.18 in4.6 mm
02:12 PM 48.4°F9.1°C 40.2°F4.6°C 73% 9.0 mph NW14.5 kmh NW 19.0 mph30.6 kmh 30.01 in1016.3 mb 0.00 in0.0 mm 0.00 in0.0 mm 0.18 in4.6 mm
02:14 PM 48.4°F9.1°C 40.2°F4.6°C 73% 10.0 mph N16.1 kmh N 19.0 mph30.6 kmh 30.01 in1016.3 mb 0.00 in0.0 mm 0.00 in0.0 mm 0.18 in4.6 mm
02:16 PM 48.3°F9.1°C 40.1°F4.5°C 73% 14.0 mph NNW22.5 kmh NNW 19.0 mph30.6 kmh 30.01 in1016.3 mb 0.00 in0.0 mm 0.00 in0.0 mm 0.18 in4.6 mm
02:18 PM 48.2°F9.0°C 40.0°F4.4°C 73% 12.0 mph NNW19.3 kmh NNW 19.0 mph30.6 kmh 30.01 in1016.3 mb 0.00 in0.0 mm 0.00 in0.0 mm 0.18 in4.6 mm
02:20 PM 48.1°F8.9°C 40.2°F4.6°C 74% 8.0 mph NW12.9 kmh NW 19.0 mph30.6 kmh 30.01 in1016.3 mb 0.00 in0.0 mm 0.00 in0.0 mm 0.18 in4.6 mm
02:22 PM 48.1°F8.9°C 40.2°F4.6°C 74% 8.0 mph NNW12.9 kmh NNW 19.0 mph30.6 kmh 30.01 in1016.3 mb 0.00 in0.0 mm 0.00 in0.0 mm 0.18 in4.6 mm
02:24 PM 48.1°F8.9°C 40.2°F4.6°C 74% 8.0 mph NW12.9 kmh NW 19.0 mph30.6 kmh 30.01 in1016.3 mb 0.00 in0.0 mm 0.00 in0.0 mm 0.18 in4.6 mm
02:26 PM 48.2°F9.0°C 40.3°F4.6°C 74% 13.0 mph NW20.9 kmh NW 19.0 mph30.6 kmh 30.01 in1016.3 mb 0.00 in0.0 mm 0.00 in0.0 mm 0.18 in4.6 mm
02:28 PM 48.1°F8.9°C 39.9°F4.4°C 73% 11.0 mph NW17.7 kmh NW 19.0 mph30.6 kmh 30.01 in1016.3 mb 0.00 in0.0 mm 0.00 in0.0 mm 0.18 in4.6 mm
02:30 PM 48.0°F8.9°C 40.1°F4.5°C 74% 12.0 mph WNW19.3 kmh WNW 19.0 mph30.6 kmh 30.01 in1016.3 mb 0.00 in0.0 mm 0.00 in0.0 mm 0.18 in4.6 mm
02:32 PM 47.9°F8.8°C 39.7°F4.3°C 73% 17.0 mph NW27.4 kmh NW 20.0 mph32.2 kmh 30.02 in1016.6 mb 0.00 in0.0 mm 0.00 in0.0 mm 0.18 in4.6 mm
02:34 PM 47.7°F8.7°C 39.8°F4.3°C 74% 11.0 mph NW17.7 kmh NW 18.0 mph29.0 kmh 30.02 in1016.6 mb 0.00 in0.0 mm 0.00 in0.0 mm 0.18 in4.6 mm
02:36 PM 47.6°F8.7°C 39.7°F4.3°C 74% 10.0 mph NW16.1 kmh NW 18.0 mph29.0 kmh 30.01 in1016.3 mb 0.00 in0.0 mm 0.00 in0.0 mm 0.18 in4.6 mm
02:38 PM 47.6°F8.7°C 39.7°F4.3°C 74% 18.0 mph NNW29.0 kmh NNW 18.0 mph29.0 kmh 30.01 in1016.3 mb 0.00 in0.0 mm 0.00 in0.0 mm 0.18 in4.6 mm
02:40 PM 47.5°F8.6°C 39.6°F4.2°C 74% 10.0 mph NNW16.1 kmh NNW 18.0 mph29.0 kmh 30.02 in1016.6 mb 0.00 in0.0 mm 0.00 in0.0 mm 0.18 in4.6 mm
02:42 PM 47.4°F8.6°C 39.5°F4.2°C 74% 9.0 mph W14.5 kmh W 18.0 mph29.0 kmh 30.02 in1016.6 mb 0.00 in0.0 mm 0.00 in0.0 mm 0.18 in4.6 mm
02:44 PM 47.5°F8.6°C 39.6°F4.2°C 74% 9.0 mph NW14.5 kmh NW 18.0 mph29.0 kmh 30.02 in1016.6 mb 0.00 in0.0 mm 0.00 in0.0 mm 0.18 in4.6 mm
02:46 PM 47.4°F8.6°C 39.5°F4.2°C 74% 11.0 mph NW17.7 kmh NW 18.0 mph29.0 kmh 30.02 in1016.6 mb 0.00 in0.0 mm 0.00 in0.0 mm 0.18 in4.6 mm
02:48 PM 47.4°F8.6°C 39.5°F4.2°C 74% 7.0 mph NW11.3 kmh NW 18.0 mph29.0 kmh 30.02 in1016.6 mb 0.00 in0.0 mm 0.00 in0.0 mm 0.18 in4.6 mm
02:50 PM 47.4°F8.6°C 39.9°F4.4°C 75% 12.0 mph NW19.3 kmh NW 18.0 mph29.0 kmh 30.01 in1016.3 mb 0.00 in0.0 mm 0.00 in0.0 mm 0.18 in4.6 mm
02:52 PM 47.5°F8.6°C 39.6°F4.2°C 74% 13.0 mph NNW20.9 kmh NNW 18.0 mph29.0 kmh 30.02 in1016.6 mb 0.00 in0.0 mm 0.00 in0.0 mm 0.18 in4.6 mm
02:56 PM 47.4°F8.6°C 39.5°F4.2°C 74% 14.0 mph NW22.5 kmh NW 18.0 mph29.0 kmh 30.02 in1016.6 mb 0.00 in0.0 mm 0.00 in0.0 mm 0.18 in4.6 mm
02:58 PM 47.2°F8.4°C 39.4°F4.1°C 74% 9.0 mph NW14.5 kmh NW 18.0 mph29.0 kmh 30.02 in1016.6 mb 0.00 in0.0 mm 0.00 in0.0 mm 0.18 in4.6 mm
03:00 PM 47.1°F8.4°C 39.3°F4.1°C 74% 10.0 mph NW16.1 kmh NW 18.0 mph29.0 kmh 30.01 in1016.3 mb 0.00 in0.0 mm 0.00 in0.0 mm 0.18 in4.6 mm
03:02 PM 47.1°F8.4°C 39.3°F4.1°C 74% 11.0 mph NNW17.7 kmh NNW 18.0 mph29.0 kmh 30.02 in1016.6 mb 0.00 in0.0 mm 0.00 in0.0 mm 0.18 in4.6 mm
03:04 PM 46.9°F8.3°C 39.4°F4.1°C 75% 2.0 mph NW3.2 kmh NW 12.0 mph19.3 kmh 30.01 in1016.3 mb 0.00 in0.0 mm 0.00 in0.0 mm 0.18 in4.6 mm
03:06 PM 46.9°F8.3°C 39.4°F4.1°C 75% 8.0 mph NW12.9 kmh NW 12.0 mph19.3 kmh 30.01 in1016.3 mb 0.00 in0.0 mm 0.00 in0.0 mm 0.18 in4.6 mm
03:08 PM 47.0°F8.3°C 39.5°F4.2°C 75% 8.0 mph NW12.9 kmh NW 16.0 mph25.7 kmh 30.01 in1016.3 mb 0.00 in0.0 mm 0.00 in0.0 mm 0.18 in4.6 mm
03:10 PM 47.0°F8.3°C 39.2°F4.0°C 74% 14.0 mph NW22.5 kmh NW 16.0 mph25.7 kmh 30.01 in1016.3 mb 0.00 in0.0 mm 0.00 in0.0 mm 0.18 in4.6 mm
03:12 PM 46.9°F8.3°C 39.1°F3.9°C 74% 14.0 mph NNW22.5 kmh NNW 16.0 mph25.7 kmh 30.02 in1016.6 mb 0.00 in0.0 mm 0.00 in0.0 mm 0.18 in4.6 mm
03:14 PM 46.8°F8.2°C 39.0°F3.9°C 74% 9.0 mph NW14.5 kmh NW 17.0 mph27.4 kmh 30.02 in1016.6 mb 0.00 in0.0 mm 0.00 in0.0 mm 0.18 in4.6 mm
03:16 PM 46.7°F8.2°C 38.9°F3.8°C 74% 12.0 mph NW19.3 kmh NW 18.0 mph29.0 kmh 30.02 in1016.6 mb 0.00 in0.0 mm 0.00 in0.0 mm 0.18 in4.6 mm
03:18 PM 46.6°F8.1°C 38.8°F3.8°C 74% 11.0 mph WNW17.7 kmh WNW 18.0 mph29.0 kmh 30.02 in1016.6 mb 0.00 in0.0 mm 0.00 in0.0 mm 0.18 in4.6 mm
03:20 PM 46.6°F8.1°C 38.8°F3.8°C 74% 9.0 mph NW14.5 kmh NW 18.0 mph29.0 kmh 30.02 in1016.6 mb 0.00 in0.0 mm 0.00 in0.0 mm 0.18 in4.6 mm
03:22 PM 46.6°F8.1°C 38.8°F3.8°C 74% 10.0 mph NW16.1 kmh NW 18.0 mph29.0 kmh 30.01 in1016.3 mb 0.00 in0.0 mm 0.00 in0.0 mm 0.18 in4.6 mm
03:24 PM 46.5°F8.1°C 38.7°F3.7°C 74% 16.0 mph NW25.7 kmh NW 18.0 mph29.0 kmh 30.02 in1016.6 mb 0.00 in0.0 mm 0.00 in0.0 mm 0.18 in4.6 mm
03:26 PM 46.4°F8.0°C 38.6°F3.7°C 74% 11.0 mph NW17.7 kmh NW 18.0 mph29.0 kmh 30.02 in1016.6 mb 0.00 in0.0 mm 0.00 in0.0 mm 0.18 in4.6 mm
03:28 PM 46.4°F8.0°C 38.6°F3.7°C 74% 11.0 mph NW17.7 kmh NW 18.0 mph29.0 kmh 30.02 in1016.6 mb 0.00 in0.0 mm 0.00 in0.0 mm 0.18 in4.6 mm
03:30 PM 46.4°F8.0°C 38.6°F3.7°C 74% 15.0 mph NW24.1 kmh NW 18.0 mph29.0 kmh 30.02 in1016.6 mb 0.00 in0.0 mm 0.00 in0.0 mm 0.18 in4.6 mm
03:32 PM 46.4°F8.0°C 38.6°F3.7°C 74% 11.0 mph NW17.7 kmh NW 18.0 mph29.0 kmh 30.02 in1016.6 mb 0.00 in0.0 mm 0.00 in0.0 mm 0.18 in4.6 mm
03:34 PM 46.3°F7.9°C 38.5°F3.6°C 74% 6.0 mph NW9.7 kmh NW 12.0 mph19.3 kmh 30.02 in1016.6 mb 0.00 in0.0 mm 0.00 in0.0 mm 0.18 in4.6 mm
03:36 PM 46.3°F7.9°C 38.5°F3.6°C 74% 5.0 mph NW8.0 kmh NW 15.0 mph24.1 kmh 30.02 in1016.6 mb 0.00 in0.0 mm 0.00 in0.0 mm 0.18 in4.6 mm
03:38 PM 46.3°F7.9°C 38.5°F3.6°C 74% 8.0 mph W12.9 kmh W 15.0 mph24.1 kmh 30.02 in1016.6 mb 0.00 in0.0 mm 0.00 in0.0 mm 0.18 in4.6 mm
03:40 PM 46.2°F7.9°C 38.4°F3.6°C 74% 10.0 mph WNW16.1 kmh WNW 15.0 mph24.1 kmh 30.02 in1016.6 mb 0.00 in0.0 mm 0.00 in0.0 mm 0.18 in4.6 mm
03:42 PM 46.2°F7.9°C 38.7°F3.7°C 75% 16.0 mph NW25.7 kmh NW 16.0 mph25.7 kmh 30.02 in1016.6 mb 0.00 in0.0 mm 0.00 in0.0 mm 0.18 in4.6 mm
03:44 PM 46.0°F7.8°C 38.2°F3.4°C 74% 13.0 mph NNW20.9 kmh NNW 20.0 mph32.2 kmh 30.02 in1016.6 mb 0.00 in0.0 mm 0.00 in0.0 mm 0.18 in4.6 mm
03:46 PM 45.9°F7.7°C 38.4°F3.6°C 75% 15.0 mph NNW24.1 kmh NNW 20.0 mph32.2 kmh 30.02 in1016.6 mb 0.00 in0.0 mm 0.00 in0.0 mm 0.18 in4.6 mm
03:48 PM 45.9°F7.7°C 38.4°F3.6°C 75% 13.0 mph NW20.9 kmh NW 20.0 mph32.2 kmh 30.02 in1016.6 mb 0.00 in0.0 mm 0.00 in0.0 mm 0.18 in4.6 mm
03:50 PM 45.8°F7.7°C 38.3°F3.5°C 75% 13.0 mph NW20.9 kmh NW 20.0 mph32.2 kmh 30.02 in1016.6 mb 0.00 in0.0 mm 0.00 in0.0 mm 0.18 in4.6 mm
03:52 PM 45.7°F7.6°C 38.2°F3.4°C 75% 5.0 mph N8.0 kmh N 20.0 mph32.2 kmh 30.02 in1016.6 mb 0.00 in0.0 mm 0.00 in0.0 mm 0.18 in4.6 mm
03:54 PM 45.7°F7.6°C 38.2°F3.4°C 75% 15.0 mph NW24.1 kmh NW 20.0 mph32.2 kmh 30.02 in1016.6 mb 0.00 in0.0 mm 0.00 in0.0 mm 0.18 in4.6 mm
03:56 PM 45.6°F7.6°C 38.2°F3.4°C 75% 14.0 mph NW22.5 kmh NW 21.0 mph33.8 kmh 30.02 in1016.6 mb 0.00 in0.0 mm 0.00 in0.0 mm 0.18 in4.6 mm
03:58 PM 45.5°F7.5°C 38.1°F3.4°C 75% 13.0 mph N20.9 kmh N 21.0 mph33.8 kmh 30.02 in1016.6 mb 0.00 in0.0 mm 0.00 in0.0 mm 0.18 in4.6 mm
04:00 PM 45.4°F7.4°C 38.0°F3.3°C 75% 11.0 mph NNW17.7 kmh NNW 21.0 mph33.8 kmh 30.02 in1016.6 mb 0.00 in0.0 mm 0.00 in0.0 mm 0.18 in4.6 mm
04:02 PM 45.3°F7.4°C 37.9°F3.3°C 75% 9.0 mph W14.5 kmh W 21.0 mph33.8 kmh 30.02 in1016.6 mb 0.00 in0.0 mm 0.00 in0.0 mm 0.18 in4.6 mm
04:04 PM 45.3°F7.4°C 37.9°F3.3°C 75% 9.0 mph NW14.5 kmh NW 15.0 mph24.1 kmh 30.02 in1016.6 mb 0.00 in0.0 mm 0.00 in0.0 mm 0.18 in4.6 mm
04:06 PM 45.3°F7.4°C 37.9°F3.3°C 75% 15.0 mph NNW24.1 kmh NNW 18.0 mph29.0 kmh 30.03 in1016.9 mb 0.00 in0.0 mm 0.00 in0.0 mm 0.18 in4.6 mm
04:08 PM 45.3°F7.4°C 37.9°F3.3°C 75% 8.0 mph NNW12.9 kmh NNW 18.0 mph29.0 kmh 30.02 in1016.6 mb 0.00 in0.0 mm 0.00 in0.0 mm 0.18 in4.6 mm
04:10 PM 45.2°F7.3°C 38.1°F3.4°C 76% 13.0 mph NNW20.9 kmh NNW 18.0 mph29.0 kmh 30.02 in1016.6 mb 0.00 in0.0 mm 0.00 in0.0 mm 0.18 in4.6 mm
04:12 PM 45.3°F7.4°C 37.9°F3.3°C 75% 7.0 mph NW11.3 kmh NW 18.0 mph29.0 kmh 30.03 in1016.9 mb 0.00 in0.0 mm 0.00 in0.0 mm 0.18 in4.6 mm
04:14 PM 45.2°F7.3°C 37.8°F3.2°C 75% 12.0 mph NW19.3 kmh NW 18.0 mph29.0 kmh 30.02 in1016.6 mb 0.00 in0.0 mm 0.00 in0.0 mm 0.18 in4.6 mm
04:16 PM 45.2°F7.3°C 37.8°F3.2°C 75% 9.0 mph NNW14.5 kmh NNW 18.0 mph29.0 kmh 30.03 in1016.9 mb 0.00 in0.0 mm 0.00 in0.0 mm 0.18 in4.6 mm
04:18 PM 45.2°F7.3°C 37.8°F3.2°C 75% 11.0 mph NW17.7 kmh NW 18.0 mph29.0 kmh 30.02 in1016.6 mb 0.00 in0.0 mm 0.00 in0.0 mm 0.18 in4.6 mm
04:20 PM 45.1°F7.3°C 37.7°F3.2°C 75% 9.0 mph NNW14.5 kmh NNW 18.0 mph29.0 kmh 30.02 in1016.6 mb 0.00 in0.0 mm 0.00 in0.0 mm 0.18 in4.6 mm
04:22 PM 45.1°F7.3°C 38.0°F3.3°C 76% 6.0 mph N9.7 kmh N 18.0 mph29.0 kmh 30.02 in1016.6 mb 0.00 in0.0 mm 0.00 in0.0 mm 0.18 in4.6 mm
04:24 PM 45.1°F7.3°C 38.0°F3.3°C 76% 9.0 mph NNW14.5 kmh NNW 18.0 mph29.0 kmh 30.02 in1016.6 mb 0.00 in0.0 mm 0.00 in0.0 mm 0.18 in4.6 mm
04:26 PM 45.1°F7.3°C 38.0°F3.3°C 76% 10.0 mph NW16.1 kmh NW 18.0 mph29.0 kmh 30.02 in1016.6 mb 0.00 in0.0 mm 0.00 in0.0 mm 0.18 in4.6 mm
04:28 PM 45.1°F7.3°C 38.0°F3.3°C 76% 16.0 mph NW25.7 kmh NW 18.0 mph29.0 kmh 30.03 in1016.9 mb 0.00 in0.0 mm 0.00 in0.0 mm 0.18 in4.6 mm
04:30 PM 45.0°F7.2°C 37.9°F3.3°C 76% 10.0 mph NW16.1 kmh NW 18.0 mph29.0 kmh 30.03 in1016.9 mb 0.00 in0.0 mm 0.00 in0.0 mm 0.18 in4.6 mm
04:32 PM 44.9°F7.2°C 37.8°F3.2°C 76% 13.0 mph NW20.9 kmh NW 18.0 mph29.0 kmh 30.03 in1016.9 mb 0.00 in0.0 mm 0.00 in0.0 mm 0.18 in4.6 mm
04:34 PM 44.9°F7.2°C 37.8°F3.2°C 76% 13.0 mph NW20.9 kmh NW 14.0 mph22.5 kmh 30.03 in1016.9 mb 0.00 in0.0 mm 0.00 in0.0 mm 0.18 in4.6 mm
04:36 PM 44.8°F7.1°C 37.7°F3.2°C 76% 16.0 mph NW25.7 kmh NW 16.0 mph25.7 kmh 30.03 in1016.9 mb 0.00 in0.0 mm 0.00 in0.0 mm 0.18 in4.6 mm
04:38 PM 44.8°F7.1°C 37.7°F3.2°C 76% 11.0 mph NW17.7 kmh NW 18.0 mph29.0 kmh 30.03 in1016.9 mb 0.00 in0.0 mm 0.00 in0.0 mm 0.18 in4.6 mm
04:40 PM 44.7°F7.1°C 37.6°F3.1°C 76% 5.0 mph NNW8.0 kmh NNW 18.0 mph29.0 kmh 30.03 in1016.9 mb 0.00 in0.0 mm 0.00 in0.0 mm 0.18 in4.6 mm
04:42 PM 44.7°F7.1°C 37.6°F3.1°C 76% 11.0 mph NW17.7 kmh NW 18.0 mph29.0 kmh 30.03 in1016.9 mb 0.00 in0.0 mm 0.00 in0.0 mm 0.18 in4.6 mm
04:44 PM 44.7°F7.1°C 37.6°F3.1°C 76% 15.0 mph NW24.1 kmh NW 18.0 mph29.0 kmh 30.03 in1016.9 mb 0.00 in0.0 mm 0.00 in0.0 mm 0.18 in4.6 mm
04:46 PM 44.6°F7.0°C 37.5°F3.1°C 76% 6.0 mph NW9.7 kmh NW 18.0 mph29.0 kmh 30.03 in1016.9 mb 0.00 in0.0 mm 0.00 in0.0 mm 0.18 in4.6 mm
04:48 PM 44.6°F7.0°C 37.2°F2.9°C 75% 12.0 mph NW19.3 kmh NW 18.0 mph29.0 kmh 30.03 in1016.9 mb 0.00 in0.0 mm 0.00 in0.0 mm 0.18 in4.6 mm
04:50 PM 44.6°F7.0°C 37.2°F2.9°C 75% 8.0 mph WNW12.9 kmh WNW 18.0 mph29.0 kmh 30.03 in1016.9 mb 0.00 in0.0 mm 0.00 in0.0 mm 0.18 in4.6 mm
04:52 PM 44.6°F7.0°C 37.5°F3.1°C 76% 14.0 mph N22.5 kmh N 18.0 mph29.0 kmh 30.03 in1016.9 mb 0.00 in0.0 mm 0.00 in0.0 mm 0.18 in4.6 mm
04:54 PM 44.7°F7.1°C 37.6°F3.1°C 76% 13.0 mph NW20.9 kmh NW 18.0 mph29.0 kmh 30.03 in1016.9 mb 0.00 in0.0 mm 0.00 in0.0 mm 0.18 in4.6 mm
04:56 PM 44.6°F7.0°C 37.2°F2.9°C 75% 15.0 mph NNW24.1 kmh NNW 18.0 mph29.0 kmh 30.03 in1016.9 mb 0.00 in0.0 mm 0.00 in0.0 mm 0.18 in4.6 mm
04:58 PM 44.6°F7.0°C 37.2°F2.9°C 75% 17.0 mph NW27.4 kmh NW 18.0 mph29.0 kmh 30.03 in1016.9 mb 0.00 in0.0 mm 0.00 in0.0 mm 0.18 in4.6 mm
05:00 PM 44.6°F7.0°C 37.2°F2.9°C 75% 16.0 mph NW25.7 kmh NW 20.0 mph32.2 kmh 30.03 in1016.9 mb 0.00 in0.0 mm 0.00 in0.0 mm 0.18 in4.6 mm
05:02 PM 44.5°F6.9°C 37.1°F2.8°C 75% 10.0 mph NW16.1 kmh NW 20.0 mph32.2 kmh 30.03 in1016.9 mb 0.00 in0.0 mm 0.00 in0.0 mm 0.18 in4.6 mm
05:04 PM 44.5°F6.9°C 37.1°F2.8°C 75% 9.0 mph NW14.5 kmh NW 18.0 mph29.0 kmh 30.03 in1016.9 mb 0.00 in0.0 mm 0.00 in0.0 mm 0.18 in4.6 mm
05:06 PM 44.4°F6.9°C 37.0°F2.8°C 75% 12.0 mph NW19.3 kmh NW 18.0 mph29.0 kmh 30.03 in1016.9 mb 0.00 in0.0 mm 0.00 in0.0 mm 0.18 in4.6 mm
05:08 PM 44.4°F6.9°C 37.0°F2.8°C 75% 11.0 mph NW17.7 kmh NW 18.0 mph29.0 kmh 30.03 in1016.9 mb 0.00 in0.0 mm 0.00 in0.0 mm 0.18 in4.6 mm
05:10 PM 44.4°F6.9°C 37.0°F2.8°C 75% 14.0 mph NW22.5 kmh NW 18.0 mph29.0 kmh 30.03 in1016.9 mb 0.00 in0.0 mm 0.00 in0.0 mm 0.18 in4.6 mm
05:12 PM 44.5°F6.9°C 37.1°F2.8°C 75% 13.0 mph NW20.9 kmh NW 18.0 mph29.0 kmh 30.03 in1016.9 mb 0.00 in0.0 mm 0.00 in0.0 mm 0.18 in4.6 mm
05:14 PM 44.5°F6.9°C 37.1°F2.8°C 75% 4.0 mph NNW6.4 kmh NNW 18.0 mph29.0 kmh 30.03 in1016.9 mb 0.00 in0.0 mm 0.00 in0.0 mm 0.18 in4.6 mm
05:16 PM 44.5°F6.9°C 37.1°F2.8°C 75% 14.0 mph NW22.5 kmh NW 18.0 mph29.0 kmh 30.03 in1016.9 mb 0.00 in0.0 mm 0.00 in0.0 mm 0.18 in4.6 mm
05:18 PM 44.5°F6.9°C 37.1°F2.8°C 75% 10.0 mph NW16.1 kmh NW 18.0 mph29.0 kmh 30.03 in1016.9 mb 0.00 in0.0 mm 0.00 in0.0 mm 0.18 in4.6 mm
05:20 PM 44.5°F6.9°C 37.1°F2.8°C 75% 9.0 mph NW14.5 kmh NW 18.0 mph29.0 kmh 30.03 in1016.9 mb 0.00 in0.0 mm 0.00 in0.0 mm 0.18 in4.6 mm
05:22 PM 44.5°F6.9°C 37.1°F2.8°C 75% 12.0 mph NW19.3 kmh NW 18.0 mph29.0 kmh 30.03 in1016.9 mb 0.00 in0.0 mm 0.00 in0.0 mm 0.18 in4.6 mm
05:24 PM 44.5°F6.9°C 37.1°F2.8°C 75% 6.0 mph NNW9.7 kmh NNW 18.0 mph29.0 kmh 30.03 in1016.9 mb 0.00 in0.0 mm 0.00 in0.0 mm 0.18 in4.6 mm
05:26 PM 44.5°F6.9°C 37.1°F2.8°C 75% 10.0 mph N16.1 kmh N 18.0 mph29.0 kmh 30.03 in1016.9 mb 0.00 in0.0 mm 0.00 in0.0 mm 0.18 in4.6 mm
05:28 PM 44.5°F6.9°C 37.1°F2.8°C 75% 8.0 mph NW12.9 kmh NW 18.0 mph29.0 kmh 30.03 in1016.9 mb 0.00 in0.0 mm 0.00 in0.0 mm 0.18 in4.6 mm
05:30 PM 44.5°F6.9°C 37.1°F2.8°C 75% 11.0 mph NNW17.7 kmh NNW 18.0 mph29.0 kmh 30.03 in1016.9 mb 0.00 in0.0 mm 0.00 in0.0 mm 0.18 in4.6 mm
05:32 PM 44.5°F6.9°C 37.1°F2.8°C 75% 6.0 mph NW9.7 kmh NW 18.0 mph29.0 kmh 30.03 in1016.9 mb 0.00 in0.0 mm 0.00 in0.0 mm 0.18 in4.6 mm
05:34 PM 44.5°F6.9°C 37.1°F2.8°C 75% 4.0 mph N6.4 kmh N 12.0 mph19.3 kmh 30.03 in1016.9 mb 0.00 in0.0 mm 0.00 in0.0 mm 0.18 in4.6 mm
05:36 PM 44.5°F6.9°C 37.1°F2.8°C 75% 10.0 mph WNW16.1 kmh WNW 13.0 mph20.9 kmh 30.03 in1016.9 mb 0.00 in0.0 mm 0.00 in0.0 mm 0.18 in4.6 mm
05:38 PM 44.5°F6.9°C 37.1°F2.8°C 75% 8.0 mph N12.9 kmh N 13.0 mph20.9 kmh 30.03 in1016.9 mb 0.00 in0.0 mm 0.00 in0.0 mm 0.18 in4.6 mm
05:40 PM 44.5°F6.9°C 37.1°F2.8°C 75% 6.0 mph NW9.7 kmh NW 13.0 mph20.9 kmh 30.03 in1016.9 mb 0.00 in0.0 mm 0.00 in0.0 mm 0.18 in4.6 mm
05:42 PM 44.5°F6.9°C 37.1°F2.8°C 75% 14.0 mph NW22.5 kmh NW 14.0 mph22.5 kmh 30.03 in1016.9 mb 0.00 in0.0 mm 0.00 in0.0 mm 0.18 in4.6 mm
05:44 PM 44.4°F6.9°C 37.0°F2.8°C 75% 8.0 mph NNW12.9 kmh NNW 14.0 mph22.5 kmh 30.03 in1016.9 mb 0.00 in0.0 mm 0.00 in0.0 mm 0.18 in4.6 mm
05:46 PM 44.5°F6.9°C 37.1°F2.8°C 75% 14.0 mph NNW22.5 kmh NNW 14.0 mph22.5 kmh 30.03 in1016.9 mb 0.00 in0.0 mm 0.00 in0.0 mm 0.18 in4.6 mm
05:48 PM 44.4°F6.9°C 37.0°F2.8°C 75% 8.0 mph NNW12.9 kmh NNW 15.0 mph24.1 kmh 30.03 in1016.9 mb 0.00 in0.0 mm 0.00 in0.0 mm 0.18 in4.6 mm
05:50 PM 44.3°F6.8°C 36.9°F2.7°C 75% 11.0 mph NW17.7 kmh NW 17.0 mph27.4 kmh 30.03 in1016.9 mb 0.00 in0.0 mm 0.00 in0.0 mm 0.18 in4.6 mm
05:52 PM 44.3°F6.8°C 36.9°F2.7°C 75% 7.0 mph NW11.3 kmh NW 17.0 mph27.4 kmh 30.03 in1016.9 mb 0.00 in0.0 mm 0.00 in0.0 mm 0.18 in4.6 mm
05:54 PM 44.2°F6.8°C 36.8°F2.7°C 75% 13.0 mph NW20.9 kmh NW 17.0 mph27.4 kmh 30.03 in1016.9 mb 0.00 in0.0 mm 0.00 in0.0 mm 0.18 in4.6 mm
05:56 PM 44.2°F6.8°C 36.8°F2.7°C 75% 9.0 mph WNW14.5 kmh WNW 17.0 mph27.4 kmh 30.03 in1016.9 mb 0.00 in0.0 mm 0.00 in0.0 mm 0.18 in4.6 mm
05:58 PM 44.1°F6.7°C 36.7°F2.6°C 75% 6.0 mph NW9.7 kmh NW 17.0 mph27.4 kmh 30.03 in1016.9 mb 0.00 in0.0 mm 0.00 in0.0 mm 0.18 in4.6 mm
06:00 PM 44.2°F6.8°C 36.8°F2.7°C 75% 6.0 mph NW9.7 kmh NW 17.0 mph27.4 kmh 30.03 in1016.9 mb 0.00 in0.0 mm 0.00 in0.0 mm 0.18 in4.6 mm
06:02 PM 44.1°F6.7°C 36.7°F2.6°C 75% 13.0 mph NW20.9 kmh NW 17.0 mph27.4 kmh 30.03 in1016.9 mb 0.00 in0.0 mm 0.00 in0.0 mm 0.18 in4.6 mm
06:04 PM 44.1°F6.7°C 37.0°F2.8°C 76% 10.0 mph NW16.1 kmh NW 12.0 mph19.3 kmh 30.04 in1017.3 mb 0.00 in0.0 mm 0.00 in0.0 mm 0.18 in4.6 mm
06:06 PM 44.1°F6.7°C 36.7°F2.6°C 75% 14.0 mph WNW22.5 kmh WNW 19.0 mph30.6 kmh 30.04 in1017.3 mb 0.00 in0.0 mm 0.00 in0.0 mm 0.18 in4.6 mm
06:08 PM 44.1°F6.7°C 37.0°F2.8°C 76% 14.0 mph NW22.5 kmh NW 19.0 mph30.6 kmh 30.04 in1017.3 mb 0.00 in0.0 mm 0.00 in0.0 mm 0.18 in4.6 mm
06:10 PM 44.0°F6.7°C 36.6°F2.6°C 75% 9.0 mph NW14.5 kmh NW 19.0 mph30.6 kmh 30.04 in1017.3 mb 0.00 in0.0 mm 0.00 in0.0 mm 0.18 in4.6 mm
06:12 PM 44.0°F6.7°C 36.6°F2.6°C 75% 9.0 mph WNW14.5 kmh WNW 19.0 mph30.6 kmh 30.04 in1017.3 mb 0.00 in0.0 mm 0.00 in0.0 mm 0.18 in4.6 mm
06:14 PM 44.0°F6.7°C 36.6°F2.6°C 75% 16.0 mph NW25.7 kmh NW 19.0 mph30.6 kmh 30.04 in1017.3 mb 0.00 in0.0 mm 0.00 in0.0 mm 0.18 in4.6 mm
06:16 PM 44.0°F6.7°C 36.6°F2.6°C 75% 16.0 mph NW25.7 kmh NW 19.0 mph30.6 kmh 30.04 in1017.3 mb 0.00 in0.0 mm 0.00 in0.0 mm 0.18 in4.6 mm
06:18 PM 44.0°F6.7°C 36.6°F2.6°C 75% 7.0 mph NW11.3 kmh NW 19.0 mph30.6 kmh 30.04 in1017.3 mb 0.00 in0.0 mm 0.00 in0.0 mm 0.18 in4.6 mm
06:20 PM 43.9°F6.6°C 36.5°F2.5°C 75% 4.0 mph N6.4 kmh N 19.0 mph30.6 kmh 30.04 in1017.3 mb 0.00 in0.0 mm 0.00 in0.0 mm 0.18 in4.6 mm
06:22 PM 44.0°F6.7°C 36.6°F2.6°C 75% 6.0 mph N9.7 kmh N 19.0 mph30.6 kmh 30.04 in1017.3 mb 0.00 in0.0 mm 0.00 in0.0 mm 0.18 in4.6 mm
06:24 PM 44.0°F6.7°C 36.6°F2.6°C 75% 12.0 mph NW19.3 kmh NW 19.0 mph30.6 kmh 30.04 in1017.3 mb 0.00 in0.0 mm 0.00 in0.0 mm 0.18 in4.6 mm
06:26 PM 44.0°F6.7°C 36.6°F2.6°C 75% 5.0 mph NW8.0 kmh NW 19.0 mph30.6 kmh 30.04 in1017.3 mb 0.00 in0.0 mm 0.00 in0.0 mm 0.18 in4.6 mm
06:28 PM 43.9°F6.6°C 36.5°F2.5°C 75% 3.0 mph NW4.8 kmh NW 19.0 mph30.6 kmh 30.04 in1017.3 mb 0.00 in0.0 mm 0.00 in0.0 mm 0.18 in4.6 mm
06:30 PM 43.9°F6.6°C 36.5°F2.5°C 75% 9.0 mph WNW14.5 kmh WNW 19.0 mph30.6 kmh 30.05 in1017.6 mb 0.00 in0.0 mm 0.00 in0.0 mm 0.18 in4.6 mm
06:32 PM 44.0°F6.7°C 36.6°F2.6°C 75% 5.0 mph NW8.0 kmh NW 19.0 mph30.6 kmh 30.04 in1017.3 mb 0.00 in0.0 mm 0.00 in0.0 mm 0.18 in4.6 mm
06:34 PM 43.9°F6.6°C 36.5°F2.5°C 75% 9.0 mph NW14.5 kmh NW 11.0 mph17.7 kmh 30.04 in1017.3 mb 0.00 in0.0 mm 0.00 in0.0 mm 0.18 in4.6 mm
06:36 PM 43.9°F6.6°C 36.5°F2.5°C 75% 8.0 mph NW12.9 kmh NW 11.0 mph17.7 kmh 30.04 in1017.3 mb 0.00 in0.0 mm 0.00 in0.0 mm 0.18 in4.6 mm
06:38 PM 44.0°F6.7°C 36.9°F2.7°C 76% 6.0 mph NW9.7 kmh NW 11.0 mph17.7 kmh 30.04 in1017.3 mb 0.00 in0.0 mm 0.00 in0.0 mm 0.18 in4.6 mm
06:40 PM 44.0°F6.7°C 36.9°F2.7°C 76% 9.0 mph NW14.5 kmh NW 13.0 mph20.9 kmh 30.04 in1017.3 mb 0.00 in0.0 mm 0.00 in0.0 mm 0.18 in4.6 mm
06:42 PM 44.0°F6.7°C 36.9°F2.7°C 76% 10.0 mph NW16.1 kmh NW 14.0 mph22.5 kmh 30.04 in1017.3 mb 0.00 in0.0 mm 0.00 in0.0 mm 0.18 in4.6 mm
06:44 PM 44.0°F6.7°C 36.6°F2.6°C 75% 11.0 mph NW17.7 kmh NW 17.0 mph27.4 kmh 30.04 in1017.3 mb 0.00 in0.0 mm 0.00 in0.0 mm 0.18 in4.6 mm
06:46 PM 44.0°F6.7°C 36.6°F2.6°C 75% 9.0 mph NW14.5 kmh NW 17.0 mph27.4 kmh 30.04 in1017.3 mb 0.00 in0.0 mm 0.00 in0.0 mm 0.18 in4.6 mm
06:48 PM 43.9°F6.6°C 36.5°F2.5°C 75% 9.0 mph WNW14.5 kmh WNW 17.0 mph27.4 kmh 30.04 in1017.3 mb 0.00 in0.0 mm 0.00 in0.0 mm 0.18 in4.6 mm
06:50 PM 43.9°F6.6°C 36.8°F2.7°C 76% 12.0 mph NNW19.3 kmh NNW 17.0 mph27.4 kmh 30.04 in1017.3 mb 0.00 in0.0 mm 0.00 in0.0 mm 0.18 in4.6 mm
06:52 PM 43.9°F6.6°C 36.8°F2.7°C 76% 10.0 mph NW16.1 kmh NW 17.0 mph27.4 kmh 30.04 in1017.3 mb 0.00 in0.0 mm 0.00 in0.0 mm 0.18 in4.6 mm
06:54 PM 43.9°F6.6°C 36.8°F2.7°C 76% 6.0 mph NNW9.7 kmh NNW 17.0 mph27.4 kmh 30.05 in1017.6 mb 0.00 in0.0 mm 0.00 in0.0 mm 0.18 in4.6 mm
06:56 PM 43.9°F6.6°C 36.5°F2.5°C 75% 9.0 mph NW14.5 kmh NW 17.0 mph27.4 kmh 30.05 in1017.6 mb 0.00 in0.0 mm 0.00 in0.0 mm 0.18 in4.6 mm
06:58 PM 43.9°F6.6°C 36.5°F2.5°C 75% 9.0 mph NNW14.5 kmh NNW 17.0 mph27.4 kmh 30.05 in1017.6 mb 0.00 in0.0 mm 0.00 in0.0 mm 0.18 in4.6 mm
07:00 PM 43.9°F6.6°C 36.5°F2.5°C 75% 4.0 mph NNW6.4 kmh NNW 17.0 mph27.4 kmh 30.05 in1017.6 mb 0.00 in0.0 mm 0.00 in0.0 mm 0.18 in4.6 mm
07:02 PM 43.9°F6.6°C 36.5°F2.5°C 75% 8.0 mph NW12.9 kmh NW 17.0 mph27.4 kmh 30.05 in1017.6 mb 0.00 in0.0 mm 0.00 in0.0 mm 0.18 in4.6 mm
07:04 PM 43.8°F6.6°C 36.4°F2.4°C 75% 6.0 mph NW9.7 kmh NW 10.0 mph16.1 kmh 30.05 in1017.6 mb 0.00 in0.0 mm 0.00 in0.0 mm 0.18 in4.6 mm
07:05 PM 43.7°F6.5°C 36.6°F2.6°C 76% 8.0 mph NW12.9 kmh NW 13.0 mph20.9 kmh 30.05 in1017.6 mb 0.00 in0.0 mm 0.00 in0.0 mm 0.18 in4.6 mm
07:08 PM 43.7°F6.5°C 36.3°F2.4°C 75% 3.0 mph NNW4.8 kmh NNW 14.0 mph22.5 kmh 30.05 in1017.6 mb 0.00 in0.0 mm 0.00 in0.0 mm 0.18 in4.6 mm
07:10 PM 43.7°F6.5°C 36.3°F2.4°C 75% 9.0 mph NW14.5 kmh NW 14.0 mph22.5 kmh 30.05 in1017.6 mb 0.00 in0.0 mm 0.00 in0.0 mm 0.18 in4.6 mm
07:12 PM 43.7°F6.5°C 36.3°F2.4°C 75% 8.0 mph NW12.9 kmh NW 14.0 mph22.5 kmh 30.05 in1017.6 mb 0.00 in0.0 mm 0.00 in0.0 mm 0.18 in4.6 mm
07:14 PM 43.6°F6.4°C 36.2°F2.3°C 75% 9.0 mph NW14.5 kmh NW 14.0 mph22.5 kmh 30.06 in1017.9 mb 0.00 in0.0 mm 0.00 in0.0 mm 0.18 in4.6 mm
07:16 PM 43.7°F6.5°C 36.3°F2.4°C 75% 5.0 mph N8.0 kmh N 14.0 mph22.5 kmh 30.06 in1017.9 mb 0.00 in0.0 mm 0.00 in0.0 mm 0.18 in4.6 mm
07:18 PM 43.6°F6.4°C 36.6°F2.6°C 76% 11.0 mph NNW17.7 kmh NNW 14.0 mph22.5 kmh 30.06 in1017.9 mb 0.00 in0.0 mm 0.00 in0.0 mm 0.18 in4.6 mm
07:20 PM 43.6°F6.4°C 36.2°F2.3°C 75% 8.0 mph NNW12.9 kmh NNW 14.0 mph22.5 kmh 30.06 in1017.9 mb 0.00 in0.0 mm 0.00 in0.0 mm 0.18 in4.6 mm
07:22 PM 43.6°F6.4°C 36.2°F2.3°C 75% 6.0 mph NNW9.7 kmh NNW 14.0 mph22.5 kmh 30.06 in1017.9 mb 0.00 in0.0 mm 0.00 in0.0 mm 0.18 in4.6 mm
07:24 PM 43.5°F6.4°C 36.1°F2.3°C 75% 6.0 mph N9.7 kmh N 14.0 mph22.5 kmh 30.06 in1017.9 mb 0.00 in0.0 mm 0.00 in0.0 mm 0.18 in4.6 mm
07:26 PM 43.6°F6.4°C 36.2°F2.3°C 75% 4.0 mph NNE6.4 kmh NNE 14.0 mph22.5 kmh 30.06 in1017.9 mb 0.00 in0.0 mm 0.00 in0.0 mm 0.18 in4.6 mm
07:28 PM 43.6°F6.4°C 36.2°F2.3°C 75% 6.0 mph N9.7 kmh N 14.0 mph22.5 kmh 30.06 in1017.9 mb 0.00 in0.0 mm 0.00 in0.0 mm 0.18 in4.6 mm
07:30 PM 43.5°F6.4°C 36.1°F2.3°C 75% 12.0 mph NW19.3 kmh NW 14.0 mph22.5 kmh 30.06 in1017.9 mb 0.00 in0.0 mm 0.00 in0.0 mm 0.18 in4.6 mm
07:32 PM 43.5°F6.4°C 36.1°F2.3°C 75% 12.0 mph WNW19.3 kmh WNW 19.0 mph30.6 kmh 30.06 in1017.9 mb 0.00 in0.0 mm 0.00 in0.0 mm 0.18 in4.6 mm
07:34 PM 43.4°F6.3°C 36.0°F2.2°C 75% 10.0 mph NNW16.1 kmh NNW 14.0 mph22.5 kmh 30.06 in1017.9 mb 0.00 in0.0 mm 0.00 in0.0 mm 0.18 in4.6 mm
07:36 PM 43.5°F6.4°C 36.1°F2.3°C 75% 12.0 mph NNW19.3 kmh NNW 14.0 mph22.5 kmh 30.06 in1017.9 mb 0.00 in0.0 mm 0.00 in0.0 mm 0.18 in4.6 mm
07:38 PM 43.5°F6.4°C 36.1°F2.3°C 75% 8.0 mph NW12.9 kmh NW 14.0 mph22.5 kmh 30.06 in1017.9 mb 0.00 in0.0 mm 0.00 in0.0 mm 0.18 in4.6 mm
07:40 PM 43.5°F6.4°C 36.1°F2.3°C 75% 10.0 mph NW16.1 kmh NW 14.0 mph22.5 kmh 30.06 in1017.9 mb 0.00 in0.0 mm 0.00 in0.0 mm 0.18 in4.6 mm
07:42 PM 43.5°F6.4°C 36.1°F2.3°C 75% 4.0 mph N6.4 kmh N 14.0 mph22.5 kmh 30.06 in1017.9 mb 0.00 in0.0 mm 0.00 in0.0 mm 0.18 in4.6 mm
07:44 PM 43.4°F6.3°C 36.0°F2.2°C 75% 13.0 mph NW20.9 kmh NW 14.0 mph22.5 kmh 30.06 in1017.9 mb 0.00 in0.0 mm 0.00 in0.0 mm 0.18 in4.6 mm
07:46 PM 43.4°F6.3°C 36.0°F2.2°C 75% 4.0 mph N6.4 kmh N 14.0 mph22.5 kmh 30.06 in1017.9 mb 0.00 in0.0 mm 0.00 in0.0 mm 0.18 in4.6 mm
07:48 PM 43.4°F6.3°C 36.0°F2.2°C 75% 9.0 mph NNW14.5 kmh NNW 15.0 mph24.1 kmh 30.06 in1017.9 mb 0.00 in0.0 mm 0.00 in0.0 mm 0.18 in4.6 mm
07:50 PM 43.4°F6.3°C 36.0°F2.2°C 75% 8.0 mph NW12.9 kmh NW 15.0 mph24.1 kmh 30.07 in1018.3 mb 0.00 in0.0 mm 0.00 in0.0 mm 0.18 in4.6 mm
07:52 PM 43.4°F6.3°C 36.0°F2.2°C 75% 12.0 mph NNW19.3 kmh NNW 15.0 mph24.1 kmh 30.06 in1017.9 mb 0.00 in0.0 mm 0.00 in0.0 mm 0.18 in4.6 mm
07:54 PM 43.4°F6.3°C 36.0°F2.2°C 75% 10.0 mph NW16.1 kmh NW 15.0 mph24.1 kmh 30.06 in1017.9 mb 0.00 in0.0 mm 0.00 in0.0 mm 0.18 in4.6 mm
07:56 PM 43.3°F6.3°C 35.9°F2.2°C 75% 13.0 mph NW20.9 kmh NW 17.0 mph27.4 kmh 30.07 in1018.3 mb 0.00 in0.0 mm 0.00 in0.0 mm 0.18 in4.6 mm
07:58 PM 43.2°F6.2°C 35.8°F2.1°C 75% 6.0 mph N9.7 kmh N 17.0 mph27.4 kmh 30.07 in1018.3 mb 0.00 in0.0 mm 0.00 in0.0 mm 0.18 in4.6 mm
08:00 PM 43.2°F6.2°C 35.8°F2.1°C 75% 6.0 mph N9.7 kmh N 17.0 mph27.4 kmh 30.07 in1018.3 mb 0.00 in0.0 mm 0.00 in0.0 mm 0.18 in4.6 mm
08:02 PM 43.2°F6.2°C 35.8°F2.1°C 75% 11.0 mph NNW17.7 kmh NNW 17.0 mph27.4 kmh 30.07 in1018.3 mb 0.00 in0.0 mm 0.00 in0.0 mm 0.18 in4.6 mm
08:04 PM 43.2°F6.2°C 35.8°F2.1°C 75% 10.0 mph NW16.1 kmh NW 14.0 mph22.5 kmh 30.07 in1018.3 mb 0.00 in0.0 mm 0.00 in0.0 mm 0.18 in4.6 mm
08:06 PM 43.2°F6.2°C 35.8°F2.1°C 75% 5.0 mph NW8.0 kmh NW 14.0 mph22.5 kmh 30.07 in1018.3 mb 0.00 in0.0 mm 0.00 in0.0 mm 0.18 in4.6 mm
08:08 PM 43.2°F6.2°C 35.8°F2.1°C 75% 6.0 mph N9.7 kmh N 14.0 mph22.5 kmh 30.07 in1018.3 mb 0.00 in0.0 mm 0.00 in0.0 mm 0.18 in4.6 mm
08:10 PM 43.2°F6.2°C 35.8°F2.1°C 75% 4.0 mph NNE6.4 kmh NNE 14.0 mph22.5 kmh 30.07 in1018.3 mb 0.00 in0.0 mm 0.00 in0.0 mm 0.18 in4.6 mm
08:12 PM 43.2°F6.2°C 35.8°F2.1°C 75% 4.0 mph N6.4 kmh N 14.0 mph22.5 kmh 30.07 in1018.3 mb 0.00 in0.0 mm 0.00 in0.0 mm 0.18 in4.6 mm
08:14 PM 43.1°F6.2°C 35.7°F2.1°C 75% 9.0 mph NW14.5 kmh NW 15.0 mph24.1 kmh 30.07 in1018.3 mb 0.00 in0.0 mm 0.00 in0.0 mm 0.18 in4.6 mm
08:16 PM 43.1°F6.2°C 35.7°F2.1°C 75% 6.0 mph NW9.7 kmh NW 15.0 mph24.1 kmh 30.07 in1018.3 mb 0.00 in0.0 mm 0.00 in0.0 mm 0.18 in4.6 mm
08:18 PM 43.1°F6.2°C 35.7°F2.1°C 75% 4.0 mph N6.4 kmh N 15.0 mph24.1 kmh 30.07 in1018.3 mb 0.00 in0.0 mm 0.00 in0.0 mm 0.18 in4.6 mm
08:20 PM 43.0°F6.1°C 35.3°F1.8°C 74% 9.0 mph NNW14.5 kmh NNW 15.0 mph24.1 kmh 30.07 in1018.3 mb 0.00 in0.0 mm 0.00 in0.0 mm 0.18 in4.6 mm
08:22 PM 42.9°F6.1°C 35.2°F1.8°C 74% 5.0 mph NNW8.0 kmh NNW 15.0 mph24.1 kmh 30.07 in1018.3 mb 0.00 in0.0 mm 0.00 in0.0 mm 0.18 in4.6 mm
08:24 PM 42.9°F6.1°C 35.2°F1.8°C 74% 3.0 mph NW4.8 kmh NW 15.0 mph24.1 kmh 30.07 in1018.3 mb 0.00 in0.0 mm 0.00 in0.0 mm 0.18 in4.6 mm
08:26 PM 42.8°F6.0°C 35.1°F1.7°C 74% 6.0 mph N9.7 kmh N 15.0 mph24.1 kmh 30.07 in1018.3 mb 0.00 in0.0 mm 0.00 in0.0 mm 0.18 in4.6 mm
08:28 PM 42.8°F6.0°C 35.1°F1.7°C 74% 9.0 mph NW14.5 kmh NW 15.0 mph24.1 kmh 30.07 in1018.3 mb 0.00 in0.0 mm 0.00 in0.0 mm 0.18 in4.6 mm
08:30 PM 42.8°F6.0°C 35.1°F1.7°C 74% 11.0 mph NW17.7 kmh NW 15.0 mph24.1 kmh 30.08 in1018.6 mb 0.00 in0.0 mm 0.00 in0.0 mm 0.18 in4.6 mm
08:32 PM 42.8°F6.0°C 35.1°F1.7°C 74% 8.0 mph NW12.9 kmh NW 15.0 mph24.1 kmh 30.07 in1018.3 mb 0.00 in0.0 mm 0.00 in0.0 mm 0.18 in4.6 mm
08:34 PM 42.7°F5.9°C 35.0°F1.7°C 74% 9.0 mph N14.5 kmh N 13.0 mph20.9 kmh 30.08 in1018.6 mb 0.00 in0.0 mm 0.00 in0.0 mm 0.18 in4.6 mm
08:36 PM 42.7°F5.9°C 35.0°F1.7°C 74% 8.0 mph NW12.9 kmh NW 15.0 mph24.1 kmh 30.07 in1018.3 mb 0.00 in0.0 mm 0.00 in0.0 mm 0.18 in4.6 mm
08:38 PM 42.7°F5.9°C 35.0°F1.7°C 74% 9.0 mph NNW14.5 kmh NNW 15.0 mph24.1 kmh 30.08 in1018.6 mb 0.00 in0.0 mm 0.00 in0.0 mm 0.18 in4.6 mm
08:40 PM 42.7°F5.9°C 35.0°F1.7°C 74% 6.0 mph NW9.7 kmh NW 15.0 mph24.1 kmh 30.08 in1018.6 mb 0.00 in0.0 mm 0.00 in0.0 mm 0.18 in4.6 mm
08:42 PM 42.8°F6.0°C 35.1°F1.7°C 74% 11.0 mph NW17.7 kmh NW 15.0 mph24.1 kmh 30.08 in1018.6 mb 0.00 in0.0 mm 0.00 in0.0 mm 0.18 in4.6 mm
08:44 PM 42.7°F5.9°C 34.7°F1.5°C 73% 15.0 mph NW24.1 kmh NW 16.0 mph25.7 kmh 30.08 in1018.6 mb 0.00 in0.0 mm 0.00 in0.0 mm 0.18 in4.6 mm
08:46 PM 42.7°F5.9°C 34.7°F1.5°C 73% 12.0 mph N19.3 kmh N 16.0 mph25.7 kmh 30.08 in1018.6 mb 0.00 in0.0 mm 0.00 in0.0 mm 0.18 in4.6 mm
08:48 PM 42.7°F5.9°C 34.7°F1.5°C 73% 9.0 mph WNW14.5 kmh WNW 16.0 mph25.7 kmh 30.08 in1018.6 mb 0.00 in0.0 mm 0.00 in0.0 mm 0.18 in4.6 mm
08:50 PM 42.7°F5.9°C 34.7°F1.5°C 73% 13.0 mph WNW20.9 kmh WNW 16.0 mph25.7 kmh 30.08 in1018.6 mb 0.00 in0.0 mm 0.00 in0.0 mm 0.18 in4.6 mm
08:52 PM 42.6°F5.9°C 34.6°F1.4°C 73% 6.0 mph NW9.7 kmh NW 16.0 mph25.7 kmh 30.08 in1018.6 mb 0.00 in0.0 mm 0.00 in0.0 mm 0.18 in4.6 mm
08:54 PM 42.6°F5.9°C 34.6°F1.4°C 73% 11.0 mph N17.7 kmh N 16.0 mph25.7 kmh 30.08 in1018.6 mb 0.00 in0.0 mm 0.00 in0.0 mm 0.18 in4.6 mm
08:56 PM 42.6°F5.9°C 34.6°F1.4°C 73% 9.0 mph NW14.5 kmh NW 16.0 mph25.7 kmh 30.08 in1018.6 mb 0.00 in0.0 mm 0.00 in0.0 mm 0.18 in4.6 mm
08:58 PM 42.7°F5.9°C 34.7°F1.5°C 73% 11.0 mph NW17.7 kmh NW 16.0 mph25.7 kmh 30.08 in1018.6 mb 0.00 in0.0 mm 0.00 in0.0 mm 0.18 in4.6 mm
09:00 PM 42.7°F5.9°C 34.7°F1.5°C 73% 5.0 mph NW8.0 kmh NW 16.0 mph25.7 kmh 30.08 in1018.6 mb 0.00 in0.0 mm 0.00 in0.0 mm 0.18 in4.6 mm
09:02 PM 42.7°F5.9°C 34.7°F1.5°C 73% 9.0 mph NNW14.5 kmh NNW 16.0 mph25.7 kmh 30.08 in1018.6 mb 0.00 in0.0 mm 0.00 in0.0 mm 0.18 in4.6 mm
09:04 PM 42.7°F5.9°C 34.7°F1.5°C 73% 2.0 mph N3.2 kmh N 12.0 mph19.3 kmh 30.08 in1018.6 mb 0.00 in0.0 mm 0.00 in0.0 mm 0.18 in4.6 mm
09:06 PM 42.7°F5.9°C 34.7°F1.5°C 73% 10.0 mph N16.1 kmh N 12.0 mph19.3 kmh 30.08 in1018.6 mb 0.00 in0.0 mm 0.00 in0.0 mm 0.18 in4.6 mm
09:08 PM 42.7°F5.9°C 34.7°F1.5°C 73% 10.0 mph N16.1 kmh N 12.0 mph19.3 kmh 30.08 in1018.6 mb 0.00 in0.0 mm 0.00 in0.0 mm 0.18 in4.6 mm
09:10 PM 42.7°F5.9°C 34.7°F1.5°C 73% 6.0 mph NW9.7 kmh NW 12.0 mph19.3 kmh 30.08 in1018.6 mb 0.00 in0.0 mm 0.00 in0.0 mm 0.18 in4.6 mm
09:12 PM 42.6°F5.9°C 34.6°F1.4°C 73% 5.0 mph N8.0 kmh N 14.0 mph22.5 kmh 30.08 in1018.6 mb 0.00 in0.0 mm 0.00 in0.0 mm 0.18 in4.6 mm
09:14 PM 42.7°F5.9°C 34.7°F1.5°C 73% 9.0 mph NW14.5 kmh NW 14.0 mph22.5 kmh 30.09 in1019.0 mb 0.00 in0.0 mm 0.00 in0.0 mm 0.18 in4.6 mm
09:15 PM 42.7°F5.9°C 34.7°F1.5°C 73% 6.0 mph NW9.7 kmh NW 14.0 mph22.5 kmh 30.09 in1019.0 mb 0.00 in0.0 mm 0.00 in0.0 mm 0.18 in4.6 mm
09:18 PM 42.6°F5.9°C 34.6°F1.4°C 73% 8.0 mph NW12.9 kmh NW 14.0 mph22.5 kmh 30.09 in1019.0 mb 0.00 in0.0 mm 0.00 in0.0 mm 0.18 in4.6 mm
09:20 PM 42.7°F5.9°C 34.7°F1.5°C 73% 3.0 mph N4.8 kmh N 14.0 mph22.5 kmh 30.09 in1019.0 mb 0.00 in0.0 mm 0.00 in0.0 mm 0.18 in4.6 mm
09:22 PM 42.7°F5.9°C 34.7°F1.5°C 73% 6.0 mph NNW9.7 kmh NNW 14.0 mph22.5 kmh 30.09 in1019.0 mb 0.00 in0.0 mm 0.00 in0.0 mm 0.18 in4.6 mm
09:24 PM 42.7°F5.9°C 34.7°F1.5°C 73% 8.0 mph NW12.9 kmh NW 14.0 mph22.5 kmh 30.09 in1019.0 mb 0.00 in0.0 mm 0.00 in0.0 mm 0.18 in4.6 mm
09:26 PM 42.7°F5.9°C 34.7°F1.5°C 73% 6.0 mph NW9.7 kmh NW 14.0 mph22.5 kmh 30.09 in1019.0 mb 0.00 in0.0 mm 0.00 in0.0 mm 0.18 in4.6 mm
09:28 PM 42.6°F5.9°C 34.6°F1.4°C 73% 4.0 mph NW6.4 kmh NW 14.0 mph22.5 kmh 30.09 in1019.0 mb 0.00 in0.0 mm 0.00 in0.0 mm 0.18 in4.6 mm
09:30 PM 42.7°F5.9°C 34.7°F1.5°C 73% 4.0 mph NNW6.4 kmh NNW 14.0 mph22.5 kmh 30.09 in1019.0 mb 0.00 in0.0 mm 0.00 in0.0 mm 0.18 in4.6 mm
09:32 PM 42.7°F5.9°C 34.7°F1.5°C 73% 12.0 mph NW19.3 kmh NW 15.0 mph24.1 kmh 30.09 in1019.0 mb 0.00 in0.0 mm 0.00 in0.0 mm 0.18 in4.6 mm
09:34 PM 42.7°F5.9°C 34.7°F1.5°C 73% 5.0 mph NW8.0 kmh NW 13.0 mph20.9 kmh 30.09 in1019.0 mb 0.00 in0.0 mm 0.00 in0.0 mm 0.18 in4.6 mm
09:36 PM 42.6°F5.9°C 34.6°F1.4°C 73% 2.0 mph NW3.2 kmh NW 13.0 mph20.9 kmh 30.09 in1019.0 mb 0.00 in0.0 mm 0.00 in0.0 mm 0.18 in4.6 mm
09:38 PM 42.7°F5.9°C 34.7°F1.5°C 73% 2.0 mph N3.2 kmh N 13.0 mph20.9 kmh 30.09 in1019.0 mb 0.00 in0.0 mm 0.00 in0.0 mm 0.18 in4.6 mm
09:40 PM 42.6°F5.9°C 34.6°F1.4°C 73% 10.0 mph N16.1 kmh N 15.0 mph24.1 kmh 30.09 in1019.0 mb 0.00 in0.0 mm 0.00 in0.0 mm 0.18 in4.6 mm
09:42 PM 42.6°F5.9°C 34.6°F1.4°C 73% 1.0 mph N1.6 kmh N 15.0 mph24.1 kmh 30.09 in1019.0 mb 0.00 in0.0 mm 0.00 in0.0 mm 0.18 in4.6 mm
09:44 PM 42.6°F5.9°C 34.6°F1.4°C 73% 3.0 mph NNW4.8 kmh NNW 15.0 mph24.1 kmh 30.09 in1019.0 mb 0.00 in0.0 mm 0.00 in0.0 mm 0.18 in4.6 mm
09:46 PM 42.6°F5.9°C 34.6°F1.4°C 73% 10.0 mph NW16.1 kmh NW 15.0 mph24.1 kmh 30.09 in1019.0 mb 0.00 in0.0 mm 0.00 in0.0 mm 0.18 in4.6 mm
09:48 PM 42.6°F5.9°C 34.6°F1.4°C 73% 3.0 mph NNW4.8 kmh NNW 15.0 mph24.1 kmh 30.09 in1019.0 mb 0.00 in0.0 mm 0.00 in0.0 mm 0.18 in4.6 mm
09:50 PM 42.6°F5.9°C 34.6°F1.4°C 73% 3.0 mph NNW4.8 kmh NNW 15.0 mph24.1 kmh 30.09 in1019.0 mb 0.00 in0.0 mm 0.00 in0.0 mm 0.18 in4.6 mm
09:52 PM 42.6°F5.9°C 34.6°F1.4°C 73% 9.0 mph NNW14.5 kmh NNW 15.0 mph24.1 kmh 30.09 in1019.0 mb 0.00 in0.0 mm 0.00 in0.0 mm 0.18 in4.6 mm
09:54 PM 42.6°F5.9°C 34.6°F1.4°C 73% 11.0 mph NNW17.7 kmh NNW 15.0 mph24.1 kmh 30.09 in1019.0 mb 0.00 in0.0 mm 0.00 in0.0 mm 0.18 in4.6 mm
09:56 PM 42.6°F5.9°C 34.6°F1.4°C 73% 4.0 mph N6.4 kmh N 15.0 mph24.1 kmh 30.09 in1019.0 mb 0.00 in0.0 mm 0.00 in0.0 mm 0.18 in4.6 mm
09:58 PM 42.6°F5.9°C 34.6°F1.4°C 73% 5.0 mph NNW8.0 kmh NNW 15.0 mph24.1 kmh 30.09 in1019.0 mb 0.00 in0.0 mm 0.00 in0.0 mm 0.18 in4.6 mm
10:00 PM 42.6°F5.9°C 34.6°F1.4°C 73% 11.0 mph NNW17.7 kmh NNW 15.0 mph24.1 kmh 30.09 in1019.0 mb 0.00 in0.0 mm 0.00 in0.0 mm 0.18 in4.6 mm
10:02 PM 42.5°F5.8°C 34.5°F1.4°C 73% 12.0 mph NW19.3 kmh NW 15.0 mph24.1 kmh 30.09 in1019.0 mb 0.00 in0.0 mm 0.00 in0.0 mm 0.18 in4.6 mm
10:04 PM 42.6°F5.9°C 34.6°F1.4°C 73% 6.0 mph NNW9.7 kmh NNW 12.0 mph19.3 kmh 30.09 in1019.0 mb 0.00 in0.0 mm 0.00 in0.0 mm 0.18 in4.6 mm
10:06 PM 42.6°F5.9°C 34.6°F1.4°C 73% 9.0 mph NW14.5 kmh NW 12.0 mph19.3 kmh 30.09 in1019.0 mb 0.00 in0.0 mm 0.00 in0.0 mm 0.18 in4.6 mm
10:08 PM 42.6°F5.9°C 34.6°F1.4°C 73% 5.0 mph N8.0 kmh N 12.0 mph19.3 kmh 30.09 in1019.0 mb 0.00 in0.0 mm 0.00 in0.0 mm 0.18 in4.6 mm
10:10 PM 42.6°F5.9°C 34.9°F1.6°C 74% 9.0 mph N14.5 kmh N 12.0 mph19.3 kmh 30.09 in1019.0 mb 0.00 in0.0 mm 0.00 in0.0 mm 0.18 in4.6 mm
10:12 PM 42.6°F5.9°C 34.9°F1.6°C 74% 9.0 mph NW14.5 kmh NW 12.0 mph19.3 kmh 30.09 in1019.0 mb 0.00 in0.0 mm 0.00 in0.0 mm 0.18 in4.6 mm
10:14 PM 42.6°F5.9°C 34.9°F1.6°C 74% 3.0 mph NW4.8 kmh NW 12.0 mph19.3 kmh 30.09 in1019.0 mb 0.00 in0.0 mm 0.00 in0.0 mm 0.18 in4.6 mm
10:16 PM 42.6°F5.9°C 34.9°F1.6°C 74% 6.0 mph NW9.7 kmh NW 13.0 mph20.9 kmh 30.09 in1019.0 mb 0.00 in0.0 mm 0.00 in0.0 mm 0.18 in4.6 mm
10:18 PM 42.6°F5.9°C 34.9°F1.6°C 74% 4.0 mph NNW6.4 kmh NNW 13.0 mph20.9 kmh 30.09 in1019.0 mb 0.00 in0.0 mm 0.00 in0.0 mm 0.18 in4.6 mm
10:20 PM 42.6°F5.9°C 34.9°F1.6°C 74% 8.0 mph NNW12.9 kmh NNW 13.0 mph20.9 kmh 30.09 in1019.0 mb 0.00 in0.0 mm 0.00 in0.0 mm 0.18 in4.6 mm
10:22 PM 42.6°F5.9°C 34.9°F1.6°C 74% 8.0 mph NNW12.9 kmh NNW 13.0 mph20.9 kmh 30.09 in1019.0 mb 0.00 in0.0 mm 0.00 in0.0 mm 0.18 in4.6 mm
10:24 PM 42.6°F5.9°C 34.9°F1.6°C 74% 4.0 mph NE6.4 kmh NE 13.0 mph20.9 kmh 30.09 in1019.0 mb 0.00 in0.0 mm 0.00 in0.0 mm 0.18 in4.6 mm
10:26 PM 42.6°F5.9°C 34.9°F1.6°C 74% 5.0 mph NW8.0 kmh NW 13.0 mph20.9 kmh 30.09 in1019.0 mb 0.00 in0.0 mm 0.00 in0.0 mm 0.18 in4.6 mm
10:28 PM 42.6°F5.9°C 34.9°F1.6°C 74% 3.0 mph N4.8 kmh N 13.0 mph20.9 kmh 30.09 in1019.0 mb 0.00 in0.0 mm 0.00 in0.0 mm 0.18 in4.6 mm
10:30 PM 42.6°F5.9°C 34.9°F1.6°C 74% 4.0 mph NNW6.4 kmh NNW 13.0 mph20.9 kmh 30.09 in1019.0 mb 0.00 in0.0 mm 0.00 in0.0 mm 0.18 in4.6 mm
10:32 PM 42.6°F5.9°C 34.9°F1.6°C 74% 3.0 mph NNW4.8 kmh NNW 13.0 mph20.9 kmh 30.08 in1018.6 mb 0.00 in0.0 mm 0.00 in0.0 mm 0.18 in4.6 mm
10:33 PM 42.6°F5.9°C 34.9°F1.6°C 74% 6.0 mph NW9.7 kmh NW 6.0 mph9.7 kmh 30.09 in1019.0 mb 0.00 in0.0 mm 0.00 in0.0 mm 0.18 in4.6 mm
10:36 PM 42.5°F5.8°C 34.8°F1.6°C 74% 9.0 mph NNW14.5 kmh NNW 12.0 mph19.3 kmh 30.08 in1018.6 mb 0.00 in0.0 mm 0.00 in0.0 mm 0.18 in4.6 mm
10:38 PM 42.5°F5.8°C 34.8°F1.6°C 74% 6.0 mph NNW9.7 kmh NNW 12.0 mph19.3 kmh 30.08 in1018.6 mb 0.00 in0.0 mm 0.00 in0.0 mm 0.18 in4.6 mm
10:40 PM 42.5°F5.8°C 34.8°F1.6°C 74% 3.0 mph NW4.8 kmh NW 12.0 mph19.3 kmh 30.09 in1019.0 mb 0.00 in0.0 mm 0.00 in0.0 mm 0.18 in4.6 mm
10:42 PM 42.4°F5.8°C 34.7°F1.5°C 74% 1.0 mph WNW1.6 kmh WNW 12.0 mph19.3 kmh 30.08 in1018.6 mb 0.00 in0.0 mm 0.00 in0.0 mm 0.18 in4.6 mm
10:44 PM 42.4°F5.8°C 34.7°F1.5°C 74% 2.0 mph NW3.2 kmh NW 12.0 mph19.3 kmh 30.08 in1018.6 mb 0.00 in0.0 mm 0.00 in0.0 mm 0.18 in4.6 mm
10:46 PM 42.4°F5.8°C 34.7°F1.5°C 74% 5.0 mph NW8.0 kmh NW 12.0 mph19.3 kmh 30.08 in1018.6 mb 0.00 in0.0 mm 0.00 in0.0 mm 0.18 in4.6 mm
10:48 PM 42.4°F5.8°C 34.7°F1.5°C 74% 6.0 mph NW9.7 kmh NW 12.0 mph19.3 kmh 30.08 in1018.6 mb 0.00 in0.0 mm 0.00 in0.0 mm 0.18 in4.6 mm
10:50 PM 42.3°F5.7°C 34.6°F1.4°C 74% 3.0 mph NW4.8 kmh NW 12.0 mph19.3 kmh 30.08 in1018.6 mb 0.00 in0.0 mm 0.00 in0.0 mm 0.18 in4.6 mm
10:52 PM 42.3°F5.7°C 34.6°F1.4°C 74% 3.0 mph NW4.8 kmh NW 12.0 mph19.3 kmh 30.08 in1018.6 mb 0.00 in0.0 mm 0.00 in0.0 mm 0.18 in4.6 mm
10:54 PM 42.3°F5.7°C 34.6°F1.4°C 74% 6.0 mph N9.7 kmh N 12.0 mph19.3 kmh 30.08 in1018.6 mb 0.00 in0.0 mm 0.00 in0.0 mm 0.18 in4.6 mm
10:56 PM 42.2°F5.7°C 34.5°F1.4°C 74% 8.0 mph NW12.9 kmh NW 12.0 mph19.3 kmh 30.08 in1018.6 mb 0.00 in0.0 mm 0.00 in0.0 mm 0.18 in4.6 mm
10:58 PM 42.2°F5.7°C 34.5°F1.4°C 74% 4.0 mph NW6.4 kmh NW 12.0 mph19.3 kmh 30.08 in1018.6 mb 0.00 in0.0 mm 0.00 in0.0 mm 0.18 in4.6 mm
11:00 PM 42.2°F5.7°C 34.5°F1.4°C 74% 4.0 mph WNW6.4 kmh WNW 12.0 mph19.3 kmh 30.08 in1018.6 mb 0.00 in0.0 mm 0.00 in0.0 mm 0.18 in4.6 mm
11:02 PM 42.2°F5.7°C 34.5°F1.4°C 74% 3.0 mph NNW4.8 kmh NNW 12.0 mph19.3 kmh 30.08 in1018.6 mb 0.00 in0.0 mm 0.00 in0.0 mm 0.18 in4.6 mm
11:04 PM 42.2°F5.7°C 34.5°F1.4°C 74% 3.0 mph NNW4.8 kmh NNW 5.0 mph8.0 kmh 30.07 in1018.3 mb 0.00 in0.0 mm 0.00 in0.0 mm 0.18 in4.6 mm
11:06 PM 42.1°F5.6°C 34.4°F1.3°C 74% 5.0 mph NNW8.0 kmh NNW 5.0 mph8.0 kmh 30.08 in1018.6 mb 0.00 in0.0 mm 0.00 in0.0 mm 0.18 in4.6 mm
11:08 PM 42.1°F5.6°C 34.1°F1.2°C 73% 4.0 mph NNW6.4 kmh NNW 10.0 mph16.1 kmh 30.08 in1018.6 mb 0.00 in0.0 mm 0.00 in0.0 mm 0.18 in4.6 mm
11:10 PM 42.1°F5.6°C 34.4°F1.3°C 74% 2.0 mph NW3.2 kmh NW 10.0 mph16.1 kmh 30.08 in1018.6 mb 0.00 in0.0 mm 0.00 in0.0 mm 0.18 in4.6 mm
11:12 PM 42.0°F5.6°C 34.3°F1.3°C 74% 2.0 mph NW3.2 kmh NW 10.0 mph16.1 kmh 30.07 in1018.3 mb 0.00 in0.0 mm 0.00 in0.0 mm 0.18 in4.6 mm
11:14 PM 42.0°F5.6°C 34.3°F1.3°C 74% 3.0 mph N4.8 kmh N 10.0 mph16.1 kmh 30.08 in1018.6 mb 0.00 in0.0 mm 0.00 in0.0 mm 0.18 in4.6 mm
11:16 PM 41.9°F5.5°C 33.9°F1.1°C 73% 6.0 mph NNW9.7 kmh NNW 10.0 mph16.1 kmh 30.08 in1018.6 mb 0.00 in0.0 mm 0.00 in0.0 mm 0.18 in4.6 mm
11:18 PM 41.8°F5.4°C 33.8°F1.0°C 73% 4.0 mph NW6.4 kmh NW 10.0 mph16.1 kmh 30.07 in1018.3 mb 0.00 in0.0 mm 0.00 in0.0 mm 0.18 in4.6 mm
11:20 PM 41.8°F5.4°C 34.1°F1.2°C 74% 3.0 mph NW4.8 kmh NW 10.0 mph16.1 kmh 30.07 in1018.3 mb 0.00 in0.0 mm 0.00 in0.0 mm 0.18 in4.6 mm
11:22 PM 41.8°F5.4°C 34.1°F1.2°C 74% 4.0 mph NW6.4 kmh NW 10.0 mph16.1 kmh 30.07 in1018.3 mb 0.00 in0.0 mm 0.00 in0.0 mm 0.18 in4.6 mm
11:24 PM 41.7°F5.4°C 34.0°F1.1°C 74% 3.0 mph NNW4.8 kmh NNW 10.0 mph16.1 kmh 30.07 in1018.3 mb 0.00 in0.0 mm 0.00 in0.0 mm 0.18 in4.6 mm
11:26 PM 41.7°F5.4°C 34.0°F1.1°C 74% 3.0 mph NNW4.8 kmh NNW 10.0 mph16.1 kmh 30.07 in1018.3 mb 0.00 in0.0 mm 0.00 in0.0 mm 0.18 in4.6 mm
11:28 PM 41.7°F5.4°C 34.0°F1.1°C 74% 4.0 mph NW6.4 kmh NW 10.0 mph16.1 kmh 30.07 in1018.3 mb 0.00 in0.0 mm 0.00 in0.0 mm 0.18 in4.6 mm
11:30 PM 41.6°F5.3°C 33.9°F1.1°C 74% 3.0 mph NNW4.8 kmh NNW 10.0 mph16.1 kmh 30.07 in1018.3 mb 0.00 in0.0 mm 0.00 in0.0 mm 0.18 in4.6 mm
11:32 PM 41.6°F5.3°C 33.9°F1.1°C 74% 1.0 mph NNW1.6 kmh NNW 10.0 mph16.1 kmh 30.07 in1018.3 mb 0.00 in0.0 mm 0.00 in0.0 mm 0.18 in4.6 mm
11:34 PM 41.5°F5.3°C 33.8°F1.0°C 74% 1.0 mph NNW1.6 kmh NNW 3.0 mph4.8 kmh 30.07 in1018.3 mb 0.00 in0.0 mm 0.00 in0.0 mm 0.18 in4.6 mm
11:35 PM 41.5°F5.3°C 33.8°F1.0°C 74% Calm Calm 3.0 mph4.8 kmh 30.07 in1018.3 mb 0.00 in0.0 mm 0.00 in0.0 mm 0.18 in4.6 mm
11:38 PM 41.5°F5.3°C 33.8°F1.0°C 74% Calm Calm 3.0 mph4.8 kmh 30.07 in1018.3 mb 0.00 in0.0 mm 0.00 in0.0 mm 0.18 in4.6 mm
11:40 PM 41.5°F5.3°C 33.8°F1.0°C 74% Calm Calm 3.0 mph4.8 kmh 30.06 in1017.9 mb 0.00 in0.0 mm 0.00 in0.0 mm 0.18 in4.6 mm
11:42 PM 41.4°F5.2°C 33.8°F1.0°C 74% Calm Calm 3.0 mph4.8 kmh 30.06 in1017.9 mb 0.00 in0.0 mm 0.00 in0.0 mm 0.18 in4.6 mm
11:44 PM 41.3°F5.2°C 33.7°F0.9°C 74% 1.0 mph NNW1.6 kmh NNW 3.0 mph4.8 kmh 30.06 in1017.9 mb 0.00 in0.0 mm 0.00 in0.0 mm 0.18 in4.6 mm
11:46 PM 41.2°F5.1°C 33.6°F0.9°C 74% Calm Calm 3.0 mph4.8 kmh 30.06 in1017.9 mb 0.00 in0.0 mm 0.00 in0.0 mm 0.18 in4.6 mm
11:48 PM 41.2°F5.1°C 33.9°F1.1°C 75% 2.0 mph NNW3.2 kmh NNW 3.0 mph4.8 kmh 30.06 in1017.9 mb 0.00 in0.0 mm 0.00 in0.0 mm 0.18 in4.6 mm
11:50 PM 41.1°F5.1°C 33.8°F1.0°C 75% 2.0 mph NNW3.2 kmh NNW 3.0 mph4.8 kmh 30.07 in1018.3 mb 0.00 in0.0 mm 0.00 in0.0 mm 0.18 in4.6 mm
11:52 PM 41.1°F5.1°C 33.8°F1.0°C 75% Calm Calm 3.0 mph4.8 kmh 30.06 in1017.9 mb 0.00 in0.0 mm 0.00 in0.0 mm 0.18 in4.6 mm
11:54 PM 41.0°F5.0°C 33.7°F0.9°C 75% Calm Calm 3.0 mph4.8 kmh 30.06 in1017.9 mb 0.00 in0.0 mm 0.00 in0.0 mm 0.18 in4.6 mm
11:56 PM 41.0°F5.0°C 33.7°F0.9°C 75% Calm Calm 3.0 mph4.8 kmh 30.06 in1017.9 mb 0.00 in0.0 mm 0.00 in0.0 mm 0.18 in4.6 mm
11:58 PM 40.9°F4.9°C 33.6°F0.9°C 75% Calm Calm 3.0 mph4.8 kmh 30.06 in1017.9 mb 0.00 in0.0 mm 0.00 in0.0 mm 0.18 in4.6 mm